KLM591 EHAM-FAOR

Flight info

Callsign KLM591
Flight time 10h 27m
Altitude 33000
Route LOPIK N852 SUTAL DCT GTQ DCT DEVDI DCT ODINA DCT PIDAD DCT TALEP DCT VAREK DCT ERPIN DCT ETOIL DCT CIRTA UA605 CSO UM2 AMIRA/N0484F350 UM2 DJA UB730 DIR UA607 FL UM731 KIBLO/N0490F370 UM731 IMLAM/N0482F390 UM731 RUDAS UQ25 ITROL/N0483F380 UQ44 AVAGO AVAGO1C
Aircraft B77W/H-SDE1E2E3FGHIJ2J3J4J5M1RWXY/LB1D1

Departure

Time 2026-04-11 01:59
Airport Amsterdam Airport Schiphol (EHAM)

Arrival

Time 2026-04-11 12:27
Airport O.R. Tambo International Airport (FAOR)
Time Latitude Longitude Altitude Speed Heading
2026-04-11 01:29 52.31201 4.76093 4 ft 0 kts 88°
2026-04-11 01:45 52.31201 4.76080 4 ft 4 kts 86°
2026-04-11 01:45 52.31199 4.76036 4 ft 4 kts 86°
2026-04-11 01:45 52.31198 4.75994 4 ft 4 kts 98°
2026-04-11 01:45 52.31204 4.75961 7 ft 4 kts 132°
2026-04-11 01:46 52.31218 4.75945 7 ft 4 kts 161°
2026-04-11 01:46 52.31242 4.75938 6 ft 4 kts 178°
2026-04-11 01:46 52.31269 4.75936 6 ft 4 kts 177°
2026-04-11 01:46 52.31296 4.75934 6 ft 4 kts 177°
2026-04-11 01:47 52.31323 4.75932 6 ft 4 kts 178°
2026-04-11 01:47 52.31350 4.75930 6 ft 4 kts 177°
2026-04-11 01:47 52.31377 4.75928 5 ft 4 kts 176°
2026-04-11 01:47 52.31398 4.75925 4 ft 3 kts 174°
2026-04-11 01:48 52.31421 4.75917 6 ft 4 kts 151°
2026-04-11 01:48 52.31437 4.75896 7 ft 4 kts 115°
2026-04-11 01:48 52.31442 4.75867 6 ft 1 kts 86°
2026-04-11 01:48 52.31441 4.75842 6 ft 4 kts 86°
2026-04-11 01:49 52.31439 4.75783 5 ft 4 kts 86°
2026-04-11 01:49 52.31438 4.75753 4 ft 4 kts 86°
2026-04-11 01:49 52.31436 4.75709 4 ft 4 kts 86°
2026-04-11 01:49 52.31434 4.75670 4 ft 1 kts 86°
2026-04-11 01:50 52.31434 4.75669 4 ft 0 kts 86°
2026-04-11 01:52 52.31435 4.75697 4 ft 4 kts 86°
2026-04-11 01:52 52.31437 4.75740 4 ft 4 kts 86°
2026-04-11 01:52 52.31439 4.75786 4 ft 4 kts 86°
2026-04-11 01:53 52.31442 4.75856 4 ft 8 kts 86°
2026-04-11 01:53 52.31446 4.75980 4 ft 13 kts 86°
2026-04-11 01:53 52.31453 4.76158 4 ft 18 kts 87°
2026-04-11 01:53 52.31460 4.76371 4 ft 19 kts 87°
2026-04-11 01:54 52.31467 4.76596 4 ft 21 kts 86°
2026-04-11 01:54 52.31476 4.76846 4 ft 22 kts 86°
2026-04-11 01:54 52.31485 4.77077 4 ft 10 kts 86°
2026-04-11 01:54 52.31505 4.77185 4 ft 10 kts 40°
2026-04-11 01:55 52.31565 4.77238 4 ft 11 kts 66°
2026-04-11 01:55 52.31595 4.77346 3 ft 11 kts 58°
2026-04-11 01:55 52.31641 4.77461 3 ft 13 kts 56°
2026-04-11 01:55 52.31697 4.77601 3 ft 15 kts 56°
2026-04-11 01:56 52.31784 4.77689 2 ft 15 kts
2026-04-11 01:56 52.31890 4.77701 3 ft 15 kts
2026-04-11 01:56 52.31994 4.77721 4 ft 15 kts 21°
2026-04-11 01:56 52.32076 4.77823 4 ft 15 kts 43°
2026-04-11 01:57 52.32121 4.77935 4 ft 12 kts 83°
2026-04-11 01:57 52.32104 4.78005 4 ft 4 kts 144°
2026-04-11 01:57 52.32064 4.78008 4 ft 2 kts 184°
2026-04-11 01:58 52.32041 4.78005 4 ft 14 kts 184°
2026-04-11 01:58 52.31707 4.77976 3 ft 89 kts 182°
2026-04-11 01:58 52.30819 4.77896 1 ft 164 kts 182°
2026-04-11 01:59 52.29509 4.77742 166 ft 199 kts 181°
2026-04-11 01:59 52.28157 4.77656 981 ft 194 kts 173°
2026-04-11 01:59 52.26905 4.78205 1873 ft 184 kts 160°
2026-04-11 01:59 52.25685 4.78840 2512 ft 185 kts 163°
2026-04-11 02:00 52.24431 4.79432 3040 ft 189 kts 165°
2026-04-11 02:00 52.23129 4.80038 3333 ft 208 kts 165°
2026-04-11 02:00 52.21652 4.80720 3511 ft 232 kts 165°
2026-04-11 02:00 52.20062 4.81462 3998 ft 242 kts 163°
2026-04-11 02:01 52.18589 4.82919 4441 ft 257 kts 134°
2026-04-11 02:01 52.17637 4.85380 5039 ft 264 kts 121°
2026-04-11 02:01 52.16760 4.88051 5675 ft 270 kts 121°
2026-04-11 02:01 52.15851 4.90750 6386 ft 271 kts 125°
2026-04-11 02:02 52.14528 4.92897 6819 ft 270 kts 152°
2026-04-11 02:02 52.12863 4.94418 7313 ft 278 kts 153°
2026-04-11 02:02 52.11182 4.95965 7936 ft 283 kts 153°
2026-04-11 02:02 52.09448 4.97575 8535 ft 289 kts 153°
2026-04-11 02:03 52.07680 4.99224 9128 ft 295 kts 153°
2026-04-11 02:03 52.05901 5.00889 9704 ft 302 kts 153°
2026-04-11 02:03 52.04058 5.02617 10246 ft 309 kts 153°
2026-04-11 02:03 52.02136 5.04418 10485 ft 328 kts 153°
2026-04-11 02:04 52.00092 5.06335 10671 ft 350 kts 152°
2026-04-11 02:04 51.97944 5.08351 10860 ft 372 kts 152°
2026-04-11 02:04 51.95659 5.10493 11298 ft 384 kts 152°
2026-04-11 02:04 51.93310 5.12672 11949 ft 388 kts 155°
2026-04-11 02:05 51.90793 5.14296 12616 ft 390 kts 167°
2026-04-11 02:05 51.88165 5.15414 13483 ft 390 kts 169°
2026-04-11 02:05 51.85557 5.16463 14329 ft 392 kts 169°
2026-04-11 02:05 51.82899 5.17546 15041 ft 396 kts 168°
2026-04-11 02:06 51.80194 5.18678 15715 ft 402 kts 168°
2026-04-11 02:06 51.77465 5.19847 16391 ft 407 kts 167°
2026-04-11 02:06 51.74736 5.21036 17083 ft 412 kts 167°
2026-04-11 02:06 51.71945 5.22262 17789 ft 416 kts 167°
2026-04-11 02:07 51.69122 5.23507 18451 ft 421 kts 167°
2026-04-11 02:07 51.66278 5.24761 19053 ft 425 kts 167°
2026-04-11 02:07 51.63439 5.26011 19686 ft 428 kts 167°
2026-04-11 02:07 51.60533 5.27289 20306 ft 432 kts 167°
2026-04-11 02:08 51.57654 5.28553 20904 ft 435 kts 168°
2026-04-11 02:08 51.54704 5.29845 21498 ft 439 kts 168°
2026-04-11 02:08 51.51730 5.31146 22082 ft 443 kts 168°
2026-04-11 02:08 51.48769 5.32440 22654 ft 447 kts 168°
2026-04-11 02:09 51.45749 5.33758 23210 ft 450 kts 168°
2026-04-11 02:09 51.42695 5.35089 23740 ft 454 kts 169°
2026-04-11 02:09 51.39670 5.36405 24173 ft 458 kts 169°
2026-04-11 02:09 51.36574 5.37752 24607 ft 462 kts 169°
2026-04-11 02:10 51.33450 5.39114 25025 ft 466 kts 170°
2026-04-11 02:10 51.30310 5.40483 25451 ft 469 kts 170°
2026-04-11 02:10 51.27150 5.41855 25866 ft 473 kts 171°
2026-04-11 02:10 51.23941 5.43057 26258 ft 473 kts 174°
2026-04-11 02:11 51.20731 5.44114 26640 ft 476 kts 174°
2026-04-11 02:11 51.17460 5.45226 27032 ft 482 kts 172°
2026-04-11 02:11 51.14188 5.46605 27408 ft 486 kts 171°
2026-04-11 02:11 51.10944 5.48035 27757 ft 490 kts 171°
2026-04-11 02:12 51.07635 5.49510 28130 ft 494 kts 171°
2026-04-11 02:12 51.04317 5.50984 28469 ft 497 kts 172°
2026-04-11 02:12 51.00961 5.52463 28817 ft 500 kts 172°
2026-04-11 02:12 50.97643 5.53915 29137 ft 502 kts 172°
2026-04-11 02:13 50.94319 5.55362 29444 ft 505 kts 172°
2026-04-11 02:13 50.90898 5.56845 29742 ft 507 kts 173°
2026-04-11 02:13 50.87535 5.58301 30099 ft 508 kts 173°
2026-04-11 02:13 50.84118 5.59782 30501 ft 506 kts 173°
2026-04-11 02:14 50.80719 5.61254 30936 ft 503 kts 173°
2026-04-11 02:14 50.77347 5.62712 31366 ft 501 kts 173°
2026-04-11 02:14 50.73989 5.64158 31743 ft 499 kts 173°
2026-04-11 02:14 50.70640 5.65596 32079 ft 498 kts 173°
2026-04-11 02:15 50.67296 5.67036 32440 ft 497 kts 173°
2026-04-11 02:15 50.63960 5.68539 32773 ft 497 kts 172°
2026-04-11 02:15 50.60628 5.70066 32953 ft 500 kts 172°
2026-04-11 02:15 50.57328 5.71668 32984 ft 506 kts 168°
2026-04-11 02:16 50.50748 5.75540 32990 ft 503 kts 167°
2026-04-11 02:16 50.44209 5.79430 33002 ft 500 kts 168°
2026-04-11 02:17 50.37678 5.83258 33005 ft 500 kts 168°
2026-04-11 02:17 50.31203 5.87023 33008 ft 500 kts 168°
2026-04-11 02:18 50.24658 5.90818 33015 ft 501 kts 168°
2026-04-11 02:18 50.18102 5.94612 33010 ft 502 kts 168°
2026-04-11 02:19 50.11580 5.98379 33012 ft 503 kts 167°
2026-04-11 02:19 50.04985 6.02176 33018 ft 504 kts 167°
2026-04-11 02:20 49.98390 6.05970 33016 ft 505 kts 167°
2026-04-11 02:20 49.91788 6.09753 33011 ft 505 kts 167°
2026-04-11 02:21 49.85242 6.13537 33031 ft 507 kts 165°
2026-04-11 02:21 49.78758 6.17934 33027 ft 508 kts 163°
2026-04-11 02:22 49.69047 6.24588 33022 ft 507 kts 163°
2026-04-11 02:23 49.62612 6.28928 33018 ft 507 kts 164°
2026-04-11 02:23 49.56096 6.33154 33019 ft 506 kts 165°
2026-04-11 02:24 49.49613 6.37316 33012 ft 507 kts 164°
2026-04-11 02:24 49.43103 6.41571 33009 ft 508 kts 163°
2026-04-11 02:25 49.36622 6.45992 33010 ft 509 kts 163°
2026-04-11 02:25 49.30173 6.50398 33003 ft 510 kts 163°
2026-04-11 02:26 49.23670 6.54798 33002 ft 510 kts 163°
2026-04-11 02:26 49.17168 6.59171 33010 ft 510 kts 163°
2026-04-11 02:27 49.10706 6.63506 32997 ft 510 kts 163°
2026-04-11 02:27 49.04188 6.67868 33002 ft 510 kts 162°
2026-04-11 02:28 48.97682 6.72213 33005 ft 510 kts 162°
2026-04-11 02:28 48.91239 6.76592 33001 ft 510 kts 162°
2026-04-11 02:29 48.84759 6.81035 33005 ft 510 kts 162°
2026-04-11 02:29 48.78282 6.85456 32999 ft 510 kts 162°
2026-04-11 02:30 48.71790 6.89863 32991 ft 510 kts 162°
2026-04-11 02:30 48.65339 6.94226 33009 ft 510 kts 162°
2026-04-11 02:31 48.58831 6.98615 33014 ft 510 kts 162°
2026-04-11 02:31 48.52372 7.02960 33010 ft 510 kts 162°
2026-04-11 02:32 48.45869 7.07322 33015 ft 510 kts 162°
2026-04-11 02:32 48.39410 7.11643 33011 ft 510 kts 161°
2026-04-11 02:33 48.32921 7.15971 33014 ft 510 kts 161°
2026-04-11 02:33 48.27517 7.19565 33015 ft 510 kts 161°
2026-04-11 02:34 48.21028 7.23871 33025 ft 510 kts 161°
2026-04-11 02:34 48.14511 7.28186 33020 ft 511 kts 161°
2026-04-11 02:35 48.07999 7.32485 33020 ft 510 kts 161°
2026-04-11 02:35 48.01540 7.36734 33021 ft 510 kts 161°
2026-04-11 02:36 47.95019 7.41015 33023 ft 510 kts 161°
2026-04-11 02:36 47.88509 7.45276 33025 ft 510 kts 161°
2026-04-11 02:37 47.82033 7.49504 33016 ft 511 kts 161°
2026-04-11 02:37 47.75509 7.53753 33023 ft 511 kts 161°
2026-04-11 02:38 47.69021 7.58112 33025 ft 512 kts 159°
2026-04-11 02:38 47.62589 7.62689 33021 ft 513 kts 159°
2026-04-11 02:39 47.56146 7.67279 33019 ft 513 kts 159°
2026-04-11 02:39 47.49746 7.71783 33019 ft 513 kts 159°
2026-04-11 02:40 47.43268 7.76307 33030 ft 513 kts 159°
2026-04-11 02:40 47.36840 7.80782 33036 ft 513 kts 159°
2026-04-11 02:41 47.30362 7.85281 33034 ft 513 kts 159°
2026-04-11 02:41 47.23898 7.89761 33042 ft 514 kts 159°
2026-04-11 02:42 47.17447 7.94220 33044 ft 514 kts 159°
2026-04-11 02:42 47.10965 7.98687 33049 ft 514 kts 159°
2026-04-11 02:43 47.04477 8.03147 33046 ft 514 kts 159°
2026-04-11 02:43 46.98010 8.07580 33057 ft 515 kts 159°
2026-04-11 02:44 46.91503 8.12028 33040 ft 515 kts 159°
2026-04-11 02:44 46.85042 8.16434 33023 ft 514 kts 159°
2026-04-11 02:45 46.78525 8.20868 33028 ft 513 kts 159°
2026-04-11 02:45 46.72089 8.25231 33049 ft 512 kts 158°
2026-04-11 02:46 46.65628 8.29604 33039 ft 512 kts 158°
2026-04-11 02:46 46.59196 8.33942 33032 ft 512 kts 158°
2026-04-11 02:47 46.52727 8.38295 33030 ft 511 kts 158°
2026-04-11 02:47 46.46268 8.42629 33015 ft 510 kts 158°
2026-04-11 02:48 46.39864 8.46916 33029 ft 509 kts 158°
2026-04-11 02:48 46.33421 8.51218 33029 ft 508 kts 159°
2026-04-11 02:49 46.26975 8.55511 33058 ft 509 kts 158°
2026-04-11 02:49 46.20564 8.59770 33040 ft 510 kts 158°
2026-04-11 02:50 46.14065 8.63962 33035 ft 510 kts 163°
2026-04-11 02:50 46.07247 8.66374 33042 ft 504 kts 176°
2026-04-11 02:51 46.00272 8.66845 33068 ft 500 kts 184°
2026-04-11 02:51 45.93336 8.66885 33051 ft 501 kts 184°
2026-04-11 02:52 45.86377 8.66967 33048 ft 502 kts 183°
2026-04-11 02:52 45.79387 8.67093 33046 ft 501 kts 183°
2026-04-11 02:53 45.72407 8.67236 33051 ft 500 kts 183°
2026-04-11 02:53 45.65438 8.67377 33044 ft 500 kts 183°
2026-04-11 02:54 45.58494 8.67513 33047 ft 499 kts 183°
2026-04-11 02:54 45.51586 8.67648 33042 ft 498 kts 183°
2026-04-11 02:55 45.44642 8.67782 33051 ft 498 kts 182°
2026-04-11 02:55 45.37750 8.67915 33042 ft 498 kts 182°
2026-04-11 02:56 45.30821 8.68049 33032 ft 498 kts 182°
2026-04-11 02:56 45.23873 8.68183 33024 ft 498 kts 182°
2026-04-11 02:57 45.16933 8.68317 33022 ft 497 kts 182°
2026-04-11 02:57 45.10045 8.68449 33023 ft 497 kts 182°
2026-04-11 02:58 45.03115 8.68582 33020 ft 496 kts 182°
2026-04-11 02:58 44.96241 8.68714 33019 ft 496 kts 182°
2026-04-11 02:59 44.89321 8.68845 33025 ft 495 kts 182°
2026-04-11 02:59 44.82460 8.68976 33019 ft 495 kts 182°
2026-04-11 03:00 44.75572 8.69106 33019 ft 494 kts 182°
2026-04-11 03:00 44.68673 8.69237 33018 ft 494 kts 182°
2026-04-11 03:01 44.61850 8.69366 33017 ft 494 kts 182°
2026-04-11 03:01 44.54970 8.69495 33029 ft 493 kts 182°
2026-04-11 03:02 44.48093 8.69625 33011 ft 493 kts 182°
2026-04-11 03:02 44.41229 8.69754 33018 ft 492 kts 182°
2026-04-11 03:03 44.34421 8.69880 33021 ft 492 kts 181°
2026-04-11 03:03 44.27562 8.70008 33018 ft 492 kts 181°
2026-04-11 03:04 44.20711 8.70135 33024 ft 491 kts 181°
2026-04-11 03:04 44.13911 8.70262 33013 ft 491 kts 181°
2026-04-11 03:05 44.07070 8.70389 33014 ft 491 kts 181°
2026-04-11 03:05 44.00224 8.70515 33006 ft 491 kts 181°
2026-04-11 03:06 43.93426 8.70640 33008 ft 490 kts 181°
2026-04-11 03:06 43.86574 8.70766 33003 ft 490 kts 181°
2026-04-11 03:07 43.79786 8.70891 33005 ft 490 kts 181°
2026-04-11 03:07 43.72961 8.71016 33009 ft 490 kts 181°
2026-04-11 03:08 43.62753 8.71203 33007 ft 489 kts 181°
2026-04-11 03:08 43.55937 8.71213 33006 ft 489 kts 182°
2026-04-11 03:09 43.49121 8.70998 33002 ft 487 kts 189°
2026-04-11 03:09 43.42599 8.68873 33015 ft 482 kts 202°
2026-04-11 03:10 43.36531 8.65084 33013 ft 481 kts 208°
2026-04-11 03:10 43.30494 8.61083 33008 ft 481 kts 207°
2026-04-11 03:11 43.24435 8.57127 33008 ft 482 kts 207°
2026-04-11 03:11 43.18360 8.53208 33007 ft 482 kts 207°
2026-04-11 03:12 43.12304 8.49323 33008 ft 483 kts 207°
2026-04-11 03:12 43.06214 8.45423 33005 ft 483 kts 207°
2026-04-11 03:13 43.00104 8.41517 33003 ft 482 kts 206°
2026-04-11 03:13 42.94044 8.37651 33002 ft 482 kts 206°
2026-04-11 03:14 42.87964 8.33779 33005 ft 482 kts 206°
2026-04-11 03:14 42.81879 8.29914 32999 ft 482 kts 206°
2026-04-11 03:15 42.75825 8.26077 32999 ft 482 kts 206°
2026-04-11 03:15 42.69735 8.22224 33002 ft 482 kts 206°
2026-04-11 03:16 42.63652 8.18385 33001 ft 482 kts 206°
2026-04-11 03:16 42.57587 8.14565 32996 ft 482 kts 206°
2026-04-11 03:17 42.51505 8.10743 33002 ft 482 kts 206°
2026-04-11 03:17 42.45416 8.06925 32995 ft 481 kts 206°
2026-04-11 03:18 42.39362 8.03135 33004 ft 481 kts 206°
2026-04-11 03:18 42.33286 7.99340 33001 ft 481 kts 206°
2026-04-11 03:19 42.28207 7.96255 33003 ft 481 kts 204°
2026-04-11 03:19 42.21982 7.92853 33003 ft 481 kts 203°
2026-04-11 03:20 42.15751 7.89508 33006 ft 481 kts 203°
2026-04-11 03:20 42.09566 7.86140 33004 ft 480 kts 204°
2026-04-11 03:21 42.03371 7.82744 33005 ft 480 kts 204°
2026-04-11 03:21 41.97220 7.79374 33004 ft 480 kts 203°
2026-04-11 03:22 41.91016 7.75986 33007 ft 479 kts 203°
2026-04-11 03:22 41.84832 7.72617 33005 ft 479 kts 203°
2026-04-11 03:23 41.78686 7.69276 33008 ft 479 kts 203°
2026-04-11 03:23 41.72500 7.65920 33006 ft 479 kts 203°
2026-04-11 03:24 41.66313 7.62569 33008 ft 479 kts 203°
2026-04-11 03:24 41.60158 7.59245 33008 ft 479 kts 202°
2026-04-11 03:25 41.53758 7.56747 33002 ft 481 kts 191°
2026-04-11 03:25 41.47152 7.55285 33011 ft 481 kts 191°
2026-04-11 03:26 41.40526 7.53820 33007 ft 481 kts 191°
2026-04-11 03:26 41.33942 7.52326 33011 ft 482 kts 191°
2026-04-11 03:27 41.27312 7.50806 33011 ft 482 kts 191°
2026-04-11 03:27 41.20730 7.49296 33011 ft 483 kts 192°
2026-04-11 03:28 41.14102 7.47780 33013 ft 483 kts 192°
2026-04-11 03:28 41.07459 7.46265 33015 ft 483 kts 192°
2026-04-11 03:29 41.00832 7.44758 33015 ft 483 kts 192°
2026-04-11 03:29 40.94236 7.43260 33015 ft 483 kts 192°
2026-04-11 03:30 40.87595 7.41755 33015 ft 483 kts 192°
2026-04-11 03:30 40.80985 7.40260 33015 ft 483 kts 192°
2026-04-11 03:31 40.74342 7.38761 33016 ft 483 kts 192°
2026-04-11 03:31 40.67745 7.37275 33018 ft 483 kts 192°
2026-04-11 03:32 40.61112 7.35785 33021 ft 483 kts 192°
2026-04-11 03:32 40.54485 7.34298 33019 ft 482 kts 192°
2026-04-11 03:33 40.47900 7.32824 33018 ft 482 kts 192°
2026-04-11 03:33 40.41282 7.31345 33016 ft 481 kts 192°
2026-04-11 03:34 40.34698 7.29877 33020 ft 481 kts 192°
2026-04-11 03:34 40.28081 7.28404 33017 ft 480 kts 192°
2026-04-11 03:35 40.21480 7.26938 33021 ft 480 kts 192°
2026-04-11 03:35 40.14931 7.25487 33023 ft 480 kts 192°
2026-04-11 03:36 40.08346 7.24030 33020 ft 480 kts 192°
2026-04-11 03:36 40.01766 7.22577 33018 ft 479 kts 192°
2026-04-11 03:37 39.95188 7.21127 33019 ft 479 kts 192°
2026-04-11 03:37 39.88640 7.19686 33019 ft 479 kts 192°
2026-04-11 03:38 39.82037 7.18237 33019 ft 479 kts 192°
2026-04-11 03:38 39.75491 7.16802 33015 ft 479 kts 192°
2026-04-11 03:39 39.68891 7.15448 33020 ft 479 kts 191°
2026-04-11 03:39 39.62263 7.14292 33020 ft 479 kts 190°
2026-04-11 03:40 39.55683 7.13157 33016 ft 479 kts 191°
2026-04-11 03:40 39.49097 7.11995 33017 ft 479 kts 191°
2026-04-11 03:41 39.42491 7.10817 33016 ft 478 kts 191°
2026-04-11 03:41 39.35882 7.09641 33013 ft 478 kts 191°
2026-04-11 03:42 39.29281 7.08469 33016 ft 478 kts 191°
2026-04-11 03:42 39.22722 7.07308 33017 ft 478 kts 191°
2026-04-11 03:43 39.16129 7.06142 33015 ft 478 kts 191°
2026-04-11 03:43 39.09530 7.04978 33011 ft 478 kts 191°
2026-04-11 03:44 39.02936 7.03817 33008 ft 478 kts 191°
2026-04-11 03:44 38.96329 7.02677 33009 ft 478 kts 191°
2026-04-11 03:45 38.89751 7.01613 33009 ft 479 kts 190°
2026-04-11 03:45 38.83128 7.00553 33009 ft 479 kts 190°
2026-04-11 03:46 38.76540 6.99493 33006 ft 479 kts 190°
2026-04-11 03:46 38.69923 6.98423 33003 ft 479 kts 191°
2026-04-11 03:47 38.63325 6.97358 33014 ft 479 kts 191°
2026-04-11 03:47 38.56699 6.96290 33015 ft 479 kts 191°
2026-04-11 03:48 38.50110 6.95230 33013 ft 479 kts 190°
2026-04-11 03:48 38.43488 6.94167 33002 ft 479 kts 190°
2026-04-11 03:49 38.36873 6.93108 32994 ft 479 kts 190°
2026-04-11 03:49 38.30294 6.92056 32990 ft 478 kts 190°
2026-04-11 03:50 38.23675 6.90999 33002 ft 478 kts 191°
2026-04-11 03:50 38.17063 6.89945 33003 ft 478 kts 191°
2026-04-11 03:51 38.10495 6.88901 32986 ft 478 kts 191°
2026-04-11 03:51 38.03889 6.87852 32997 ft 477 kts 191°
2026-04-11 03:52 37.97291 6.86806 33000 ft 477 kts 191°
2026-04-11 03:52 37.90738 6.85770 32986 ft 477 kts 191°
2026-04-11 03:53 37.84160 6.84731 32993 ft 476 kts 190°
2026-04-11 03:53 37.77573 6.83693 32987 ft 476 kts 190°
2026-04-11 03:54 37.70980 6.82656 32991 ft 476 kts 190°
2026-04-11 03:54 37.64443 6.81629 32983 ft 476 kts 190°
2026-04-11 03:55 37.57844 6.80594 32990 ft 476 kts 190°
2026-04-11 03:55 37.51300 6.79570 32987 ft 476 kts 190°
2026-04-11 03:56 37.44723 6.78543 32982 ft 476 kts 190°
2026-04-11 03:56 37.38142 6.77517 32985 ft 475 kts 190°
2026-04-11 03:57 37.31612 6.76500 32984 ft 475 kts 190°
2026-04-11 03:57 37.25029 6.75477 32979 ft 475 kts 190°
2026-04-11 03:58 37.18465 6.74459 32984 ft 475 kts 190°
2026-04-11 03:58 37.11943 6.73449 32988 ft 474 kts 190°
2026-04-11 03:59 37.05385 6.72435 32987 ft 474 kts 190°
2026-04-11 03:59 36.98831 6.71424 32989 ft 474 kts 190°
2026-04-11 04:00 36.92315 6.70420 32991 ft 473 kts 190°
2026-04-11 04:00 36.85750 6.69411 33003 ft 473 kts 190°
2026-04-11 04:01 36.79212 6.68408 33002 ft 473 kts 190°
2026-04-11 04:01 36.72705 6.67410 33022 ft 473 kts 190°
2026-04-11 04:02 36.66156 6.66407 33021 ft 473 kts 190°
2026-04-11 04:02 36.59665 6.65417 33045 ft 472 kts 190°
2026-04-11 04:03 36.53135 6.64422 33048 ft 472 kts 190°
2026-04-11 04:03 36.46609 6.63427 33066 ft 471 kts 190°
2026-04-11 04:04 36.40134 6.62443 33076 ft 471 kts 189°
2026-04-11 04:04 36.33649 6.61472 33077 ft 472 kts 188°
2026-04-11 04:05 36.27035 6.61527 33075 ft 476 kts 177°
2026-04-11 04:05 36.20512 6.62945 33087 ft 479 kts 171°
2026-04-11 04:06 36.15086 6.64384 33074 ft 479 kts 171°
2026-04-11 04:06 36.08533 6.66105 33087 ft 480 kts 171°
2026-04-11 04:07 36.02022 6.67779 33087 ft 480 kts 171°
2026-04-11 04:07 35.95458 6.69450 33099 ft 481 kts 172°
2026-04-11 04:08 35.88897 6.71115 33100 ft 481 kts 172°
2026-04-11 04:08 35.82330 6.72781 33094 ft 481 kts 172°
2026-04-11 04:09 35.75804 6.74435 33099 ft 481 kts 172°
2026-04-11 04:09 35.69231 6.76098 33105 ft 481 kts 172°
2026-04-11 04:10 35.62710 6.77745 33091 ft 481 kts 172°
2026-04-11 04:10 35.56145 6.79399 33102 ft 481 kts 172°
2026-04-11 04:11 35.49568 6.81055 33095 ft 482 kts 172°
2026-04-11 04:11 35.42998 6.82706 33108 ft 482 kts 172°
2026-04-11 04:12 35.36432 6.84352 33103 ft 483 kts 172°
2026-04-11 04:12 35.29829 6.86006 33104 ft 483 kts 172°
2026-04-11 04:13 35.23270 6.87646 33097 ft 483 kts 172°
2026-04-11 04:13 35.16665 6.89295 33097 ft 483 kts 172°
2026-04-11 04:14 35.10090 6.90934 33091 ft 483 kts 172°
2026-04-11 04:14 35.03488 6.92576 33082 ft 483 kts 172°
2026-04-11 04:15 34.93616 6.95028 33066 ft 484 kts 172°
2026-04-11 04:16 34.87009 6.96665 33039 ft 484 kts 172°
2026-04-11 04:16 34.80435 6.98292 33037 ft 484 kts 172°
2026-04-11 04:17 34.73802 6.99954 33285 ft 487 kts 172°
2026-04-11 04:17 34.70480 7.00797 33666 ft 485 kts 172°
2026-04-11 04:17 34.67187 7.01635 34058 ft 483 kts 172°
2026-04-11 04:17 34.63940 7.02460 34385 ft 480 kts 172°
2026-04-11 04:18 34.60667 7.03290 34702 ft 479 kts 172°
2026-04-11 04:18 34.57426 7.04109 34928 ft 480 kts 172°
2026-04-11 04:18 34.54136 7.04937 34956 ft 483 kts 172°
2026-04-11 04:19 34.47537 7.06597 34983 ft 481 kts 172°
2026-04-11 04:19 34.41043 7.08232 34979 ft 477 kts 172°
2026-04-11 04:20 34.34541 7.09864 34988 ft 476 kts 173°
2026-04-11 04:20 34.28056 7.11488 34986 ft 477 kts 173°
2026-04-11 04:21 34.21540 7.13118 34985 ft 478 kts 173°
2026-04-11 04:21 34.15000 7.14751 34987 ft 480 kts 173°
2026-04-11 04:22 34.08471 7.16379 34991 ft 481 kts 173°
2026-04-11 04:22 34.01900 7.18016 34988 ft 482 kts 173°
2026-04-11 04:23 33.95335 7.19649 34980 ft 483 kts 173°
2026-04-11 04:23 33.88737 7.21287 34979 ft 483 kts 173°
2026-04-11 04:24 33.82144 7.22921 34983 ft 483 kts 173°
2026-04-11 04:24 33.75589 7.24544 34983 ft 483 kts 173°
2026-04-11 04:25 33.68986 7.26175 34985 ft 483 kts 173°
2026-04-11 04:25 33.62391 7.27802 34978 ft 483 kts 173°
2026-04-11 04:26 33.55836 7.29417 34980 ft 483 kts 173°
2026-04-11 04:26 33.49224 7.31043 34990 ft 483 kts 173°
2026-04-11 04:27 33.42624 7.32665 34986 ft 483 kts 174°
2026-04-11 04:27 33.36079 7.34270 34975 ft 482 kts 174°
2026-04-11 04:28 33.29511 7.35879 34972 ft 480 kts 174°
2026-04-11 04:28 33.23001 7.37470 34973 ft 478 kts 174°
2026-04-11 04:29 33.16469 7.39063 34976 ft 478 kts 174°
2026-04-11 04:29 33.09985 7.40643 34975 ft 478 kts 174°
2026-04-11 04:30 33.03449 7.42232 34980 ft 478 kts 174°
2026-04-11 04:30 32.96945 7.43812 34977 ft 479 kts 174°
2026-04-11 04:31 32.90378 7.45405 34975 ft 480 kts 174°
2026-04-11 04:31 32.83852 7.46986 34972 ft 481 kts 174°
2026-04-11 04:32 32.77279 7.48576 34970 ft 482 kts 174°
2026-04-11 04:32 32.70732 7.50157 34968 ft 482 kts 174°
2026-04-11 04:33 32.64158 7.51742 34964 ft 482 kts 174°
2026-04-11 04:33 32.57580 7.53326 34976 ft 482 kts 174°
2026-04-11 04:34 32.51005 7.54908 34960 ft 481 kts 174°
2026-04-11 04:34 32.44437 7.56484 34967 ft 481 kts 174°
2026-04-11 04:35 32.37899 7.58051 34958 ft 481 kts 174°
2026-04-11 04:35 32.31325 7.59624 34962 ft 481 kts 175°
2026-04-11 04:36 32.24779 7.61189 34957 ft 481 kts 175°
2026-04-11 04:36 32.18206 7.62757 34961 ft 481 kts 175°
2026-04-11 04:37 32.11671 7.64314 34963 ft 481 kts 175°
2026-04-11 04:37 32.05097 7.65879 34958 ft 481 kts 175°
2026-04-11 04:38 31.98509 7.67444 34959 ft 481 kts 175°
2026-04-11 04:38 31.91963 7.68997 34963 ft 481 kts 175°
2026-04-11 04:39 31.85414 7.70549 34958 ft 482 kts 175°
2026-04-11 04:39 31.78828 7.72107 34961 ft 482 kts 175°
2026-04-11 04:40 31.72272 7.73665 34955 ft 482 kts 175°
2026-04-11 04:40 31.65697 7.75258 34957 ft 482 kts 175°
2026-04-11 04:41 31.59110 7.76856 34953 ft 482 kts 175°
2026-04-11 04:41 31.52571 7.78436 34955 ft 482 kts 175°
2026-04-11 04:42 31.45989 7.80022 34956 ft 482 kts 175°
2026-04-11 04:42 31.39406 7.81605 34957 ft 482 kts 175°
2026-04-11 04:43 31.32812 7.83188 34959 ft 483 kts 175°
2026-04-11 04:43 31.26263 7.84759 34953 ft 483 kts 175°
2026-04-11 04:44 31.19656 7.86342 34958 ft 483 kts 175°
2026-04-11 04:44 31.13054 7.87921 34950 ft 483 kts 175°
2026-04-11 04:45 31.06497 7.89487 34953 ft 483 kts 175°
2026-04-11 04:45 30.99891 7.91063 34954 ft 484 kts 175°
2026-04-11 04:46 30.93283 7.92637 34949 ft 484 kts 175°
2026-04-11 04:46 30.86716 7.94199 34960 ft 484 kts 175°
2026-04-11 04:47 30.80105 7.95769 34953 ft 484 kts 175°
2026-04-11 04:47 30.73492 7.97337 34953 ft 484 kts 175°
2026-04-11 04:48 30.66924 7.98893 34956 ft 484 kts 175°
2026-04-11 04:48 30.60301 8.00460 34956 ft 484 kts 175°
2026-04-11 04:49 30.53676 8.02025 34953 ft 485 kts 175°
2026-04-11 04:49 30.47101 8.03576 34957 ft 485 kts 175°
2026-04-11 04:50 30.40485 8.05134 34960 ft 485 kts 175°
2026-04-11 04:50 30.33855 8.06692 34964 ft 485 kts 176°
2026-04-11 04:51 30.27270 8.08240 34960 ft 485 kts 176°
2026-04-11 04:51 30.20650 8.09793 34958 ft 484 kts 176°
2026-04-11 04:52 30.15154 8.11082 34956 ft 484 kts 176°
2026-04-11 04:52 30.07464 8.12881 34970 ft 483 kts 176°
2026-04-11 04:53 30.01980 8.14169 34984 ft 484 kts 176°
2026-04-11 04:53 29.95357 8.15743 34971 ft 484 kts 176°
2026-04-11 04:54 29.88781 8.17309 34991 ft 484 kts 176°
2026-04-11 04:54 29.82166 8.18880 34966 ft 484 kts 176°
2026-04-11 04:55 29.75591 8.20436 34976 ft 484 kts 176°
2026-04-11 04:55 29.68992 8.21996 34983 ft 483 kts 176°
2026-04-11 04:56 29.62438 8.23543 34989 ft 482 kts 176°
2026-04-11 04:56 29.55856 8.25095 34988 ft 482 kts 176°
2026-04-11 04:57 29.49280 8.26643 34985 ft 481 kts 176°
2026-04-11 04:57 29.42722 8.28184 34987 ft 480 kts 176°
2026-04-11 04:58 29.36166 8.29723 34990 ft 480 kts 177°
2026-04-11 04:58 29.29649 8.31251 34991 ft 480 kts 177°
2026-04-11 04:59 29.23092 8.32786 34993 ft 480 kts 177°
2026-04-11 04:59 29.16566 8.34313 34992 ft 480 kts 177°
2026-04-11 05:00 29.10043 8.35836 34991 ft 480 kts 177°
2026-04-11 05:00 29.03479 8.37367 34991 ft 480 kts 177°
2026-04-11 05:01 28.96929 8.38893 34991 ft 480 kts 177°
2026-04-11 05:01 28.90420 8.40407 34993 ft 479 kts 177°
2026-04-11 05:02 28.83873 8.41929 34995 ft 479 kts 177°
2026-04-11 05:02 28.77329 8.43448 34999 ft 479 kts 178°
2026-04-11 05:03 28.70839 8.44952 34997 ft 478 kts 178°
2026-04-11 05:03 28.64309 8.46463 35007 ft 478 kts 178°
2026-04-11 05:04 28.57830 8.47961 35007 ft 478 kts 178°
2026-04-11 05:04 28.51311 8.49466 35008 ft 478 kts 178°
2026-04-11 05:05 28.41520 8.51723 35019 ft 478 kts 178°
2026-04-11 05:05 28.35037 8.53215 35010 ft 478 kts 178°
2026-04-11 05:06 28.28506 8.54716 35006 ft 477 kts 178°
2026-04-11 05:06 28.21983 8.56215 35007 ft 477 kts 178°
2026-04-11 05:07 28.15521 8.57698 35009 ft 476 kts 178°
2026-04-11 05:07 28.09017 8.59187 35010 ft 476 kts 178°
2026-04-11 05:08 28.02519 8.60685 35002 ft 475 kts 178°
2026-04-11 05:08 27.96066 8.62179 35008 ft 474 kts 178°
2026-04-11 05:09 27.89591 8.63675 35010 ft 473 kts 178°
2026-04-11 05:09 27.83184 8.65152 35008 ft 473 kts 179°
2026-04-11 05:10 27.76735 8.66636 35004 ft 472 kts 179°
2026-04-11 05:10 27.70300 8.68114 35009 ft 472 kts 179°
2026-04-11 05:11 27.63855 8.69595 35009 ft 471 kts 179°
2026-04-11 05:11 27.57468 8.71060 35008 ft 470 kts 179°
2026-04-11 05:12 27.51054 8.72529 35013 ft 470 kts 179°
2026-04-11 05:12 27.44637 8.73997 35008 ft 469 kts 179°
2026-04-11 05:13 27.38277 8.75451 35011 ft 468 kts 179°
2026-04-11 05:13 27.31916 8.76903 35009 ft 467 kts 179°
2026-04-11 05:14 27.25530 8.78359 35013 ft 467 kts 180°
2026-04-11 05:14 27.19161 8.79809 35014 ft 466 kts 180°
2026-04-11 05:15 27.12783 8.81260 35010 ft 466 kts 180°
2026-04-11 05:15 27.06470 8.82695 35009 ft 465 kts 180°
2026-04-11 05:16 27.00124 8.84136 35008 ft 465 kts 180°
2026-04-11 05:16 26.93780 8.85582 35012 ft 465 kts 180°
2026-04-11 05:17 26.87467 8.87030 35014 ft 464 kts 180°
2026-04-11 05:17 26.81120 8.88484 35010 ft 464 kts 180°
2026-04-11 05:18 26.74786 8.89932 35016 ft 464 kts 180°
2026-04-11 05:18 26.68489 8.91369 35019 ft 463 kts 180°
2026-04-11 05:19 26.62157 8.92812 35023 ft 463 kts 180°
2026-04-11 05:19 26.55867 8.94244 35014 ft 464 kts 180°
2026-04-11 05:20 26.49515 8.95689 35021 ft 464 kts 180°
2026-04-11 05:20 26.43212 8.97122 35028 ft 464 kts 180°
2026-04-11 05:21 26.36887 8.98557 35026 ft 464 kts 180°
2026-04-11 05:21 26.30549 8.99994 35028 ft 464 kts 180°
2026-04-11 05:22 26.24250 9.01420 35033 ft 464 kts 180°
2026-04-11 05:22 26.17891 9.02859 35060 ft 465 kts 180°
2026-04-11 05:23 26.11558 9.04289 35052 ft 466 kts 180°
2026-04-11 05:23 26.05173 9.05733 35060 ft 467 kts 180°
2026-04-11 05:24 25.98840 9.07161 35064 ft 467 kts 180°
2026-04-11 05:24 25.92460 9.08609 35071 ft 468 kts 180°
2026-04-11 05:25 25.86065 9.10062 35077 ft 468 kts 180°
2026-04-11 05:25 25.79693 9.11508 35076 ft 469 kts 180°
2026-04-11 05:26 25.73278 9.12961 35074 ft 470 kts 180°
2026-04-11 05:26 25.66891 9.14408 35083 ft 470 kts 180°
2026-04-11 05:27 25.60462 9.15863 35083 ft 471 kts 180°
2026-04-11 05:27 25.54060 9.17309 35090 ft 471 kts 180°
2026-04-11 05:28 25.47615 9.18764 35092 ft 471 kts 180°
2026-04-11 05:28 25.41181 9.20214 35093 ft 472 kts 180°
2026-04-11 05:29 25.34780 9.21655 35092 ft 472 kts 180°
2026-04-11 05:29 25.28335 9.23104 35090 ft 472 kts 180°
2026-04-11 05:30 25.21878 9.24556 35102 ft 472 kts 180°
2026-04-11 05:30 25.15463 9.25997 35107 ft 473 kts 180°
2026-04-11 05:31 25.08994 9.27446 35112 ft 473 kts 180°
2026-04-11 05:31 25.02564 9.28886 35124 ft 474 kts 180°
2026-04-11 05:32 24.96100 9.30331 35129 ft 474 kts 180°
2026-04-11 05:32 24.89618 9.31781 35130 ft 474 kts 180°
2026-04-11 05:33 24.83157 9.33219 35131 ft 475 kts 180°
2026-04-11 05:33 24.76693 9.34662 35138 ft 476 kts 180°
2026-04-11 05:34 24.70177 9.36117 35140 ft 477 kts 180°
2026-04-11 05:34 24.63661 9.37567 35141 ft 478 kts 180°
2026-04-11 05:35 24.57127 9.39019 35157 ft 478 kts 180°
2026-04-11 05:35 24.50605 9.40466 35159 ft 479 kts 180°
2026-04-11 05:36 24.44079 9.41915 35173 ft 480 kts 180°
2026-04-11 05:36 24.37521 9.43369 35189 ft 481 kts 180°
2026-04-11 05:37 24.30965 9.44998 35188 ft 491 kts 173°
2026-04-11 05:37 24.24530 9.47912 35185 ft 510 kts 162°
2026-04-11 05:38 24.18396 9.51825 35180 ft 515 kts 160°
2026-04-11 05:38 24.12234 9.55866 35160 ft 515 kts 160°
2026-04-11 05:39 24.06052 9.59871 35147 ft 515 kts 160°
2026-04-11 05:39 23.99892 9.63814 35129 ft 515 kts 160°
2026-04-11 05:40 23.93682 9.67772 35125 ft 515 kts 160°
2026-04-11 05:40 23.87515 9.71700 35122 ft 515 kts 160°
2026-04-11 05:41 23.81316 9.75648 35140 ft 515 kts 160°
2026-04-11 05:41 23.76110 9.78960 35115 ft 516 kts 160°
2026-04-11 05:42 23.69939 9.82883 35123 ft 516 kts 160°
2026-04-11 05:42 23.63747 9.86814 35124 ft 516 kts 160°
2026-04-11 05:43 23.57522 9.90761 35121 ft 517 kts 160°
2026-04-11 05:43 23.51328 9.94685 35119 ft 517 kts 160°
2026-04-11 05:44 23.45091 9.98633 35115 ft 517 kts 160°
2026-04-11 05:44 23.38854 10.02575 35119 ft 518 kts 160°
2026-04-11 05:45 23.32642 10.06497 35112 ft 518 kts 160°
2026-04-11 05:45 23.26392 10.10438 35114 ft 519 kts 160°
2026-04-11 05:46 23.20161 10.14364 35107 ft 520 kts 159°
2026-04-11 05:46 23.13892 10.18309 35108 ft 520 kts 159°
2026-04-11 05:47 23.07606 10.22262 35101 ft 521 kts 159°
2026-04-11 05:47 23.01363 10.26183 35107 ft 521 kts 159°
2026-04-11 05:48 22.95076 10.30127 35100 ft 522 kts 159°
2026-04-11 05:48 22.88779 10.34073 35104 ft 522 kts 159°
2026-04-11 05:49 22.82475 10.38019 35102 ft 522 kts 159°
2026-04-11 05:49 22.76219 10.41931 35099 ft 522 kts 159°
2026-04-11 05:50 22.69911 10.45872 35096 ft 522 kts 159°
2026-04-11 05:50 22.63614 10.49802 35093 ft 522 kts 159°
2026-04-11 05:51 22.57396 10.53850 35088 ft 525 kts 157°
2026-04-11 05:51 22.51191 10.58062 35091 ft 526 kts 156°
2026-04-11 05:52 22.44985 10.62269 35106 ft 526 kts 156°
2026-04-11 05:52 22.38784 10.66431 35080 ft 526 kts 157°
2026-04-11 05:53 22.32575 10.70578 35091 ft 526 kts 157°
2026-04-11 05:53 22.26335 10.74741 35092 ft 525 kts 156°
2026-04-11 05:54 22.20131 10.78878 35089 ft 526 kts 156°
2026-04-11 05:54 22.13933 10.83008 35085 ft 526 kts 156°
2026-04-11 05:55 22.07706 10.87153 35082 ft 525 kts 156°
2026-04-11 05:55 22.01482 10.91292 35080 ft 525 kts 156°
2026-04-11 05:56 21.95257 10.95427 35079 ft 524 kts 156°
2026-04-11 05:56 21.89080 10.99526 35078 ft 524 kts 156°
2026-04-11 05:57 21.82870 11.03643 35082 ft 523 kts 156°
2026-04-11 05:57 21.76689 11.07735 35078 ft 523 kts 156°
2026-04-11 05:58 21.70480 11.11842 35076 ft 522 kts 156°
2026-04-11 05:58 21.64313 11.15917 35068 ft 522 kts 156°
2026-04-11 05:59 21.58107 11.20014 35071 ft 522 kts 156°
2026-04-11 05:59 21.51905 11.24104 35073 ft 522 kts 156°
2026-04-11 06:00 21.45704 11.28190 35069 ft 522 kts 156°
2026-04-11 06:00 21.39501 11.32272 35068 ft 522 kts 156°
2026-04-11 06:01 21.33339 11.36324 35066 ft 522 kts 156°
2026-04-11 06:01 21.27127 11.40405 35067 ft 522 kts 155°
2026-04-11 06:02 21.20928 11.44473 35062 ft 522 kts 155°
2026-04-11 06:02 21.14772 11.48510 35060 ft 522 kts 155°
2026-04-11 06:03 21.08554 11.52580 35057 ft 521 kts 155°
2026-04-11 06:03 21.02401 11.56596 35057 ft 521 kts 155°
2026-04-11 06:04 20.96197 11.60644 35064 ft 521 kts 155°
2026-04-11 06:04 20.90006 11.64680 35057 ft 521 kts 155°
2026-04-11 06:05 20.83812 11.68715 35053 ft 521 kts 155°
2026-04-11 06:05 20.77651 11.72725 35054 ft 520 kts 155°
2026-04-11 06:06 20.68357 11.78767 35049 ft 520 kts 155°
2026-04-11 06:07 20.62197 11.82767 35049 ft 520 kts 155°
2026-04-11 06:07 20.55998 11.86789 35053 ft 520 kts 155°
2026-04-11 06:08 20.49833 11.90785 35050 ft 520 kts 155°
2026-04-11 06:08 20.43646 11.94795 35050 ft 520 kts 155°
2026-04-11 06:09 20.37466 11.98799 35051 ft 520 kts 155°
2026-04-11 06:09 20.31313 12.02781 35048 ft 519 kts 155°
2026-04-11 06:10 20.25123 12.06783 35049 ft 519 kts 155°
2026-04-11 06:10 20.18970 12.10757 35049 ft 519 kts 155°
2026-04-11 06:11 20.12798 12.14740 35048 ft 519 kts 155°
2026-04-11 06:11 20.06610 12.18730 35049 ft 518 kts 155°
2026-04-11 06:12 20.00436 12.22706 35043 ft 518 kts 155°
2026-04-11 06:12 19.94292 12.26659 35044 ft 518 kts 154°
2026-04-11 06:13 19.88108 12.30635 35046 ft 517 kts 154°
2026-04-11 06:13 19.81983 12.34569 35051 ft 517 kts 154°
2026-04-11 06:14 19.75812 12.38529 35051 ft 517 kts 154°
2026-04-11 06:14 19.69680 12.42460 35049 ft 517 kts 154°
2026-04-11 06:15 19.63509 12.46413 35046 ft 517 kts 154°
2026-04-11 06:15 19.57322 12.50373 35044 ft 517 kts 154°
2026-04-11 06:16 19.51187 12.54296 35056 ft 517 kts 154°
2026-04-11 06:16 19.45009 12.58242 35051 ft 517 kts 154°
2026-04-11 06:17 19.38833 12.62185 35052 ft 517 kts 154°
2026-04-11 06:17 19.32690 12.66102 35057 ft 517 kts 154°
2026-04-11 06:18 19.26510 12.70040 35057 ft 517 kts 154°
2026-04-11 06:18 19.20332 12.73973 35054 ft 517 kts 154°
2026-04-11 06:19 19.14199 12.77874 35052 ft 517 kts 154°
2026-04-11 06:19 19.08010 12.81808 35050 ft 518 kts 154°
2026-04-11 06:20 19.01830 12.85731 35051 ft 517 kts 154°
2026-04-11 06:20 18.95455 12.89023 35046 ft 509 kts 165°
2026-04-11 06:21 18.88714 12.91258 35058 ft 505 kts 169°
2026-04-11 06:21 18.82008 12.93376 35043 ft 507 kts 169°
2026-04-11 06:22 18.75230 12.95555 35047 ft 508 kts 169°
2026-04-11 06:22 18.68461 12.97758 35052 ft 508 kts 168°
2026-04-11 06:23 18.61727 12.99955 35046 ft 509 kts 168°
2026-04-11 06:23 18.54946 13.02164 35044 ft 509 kts 168°
2026-04-11 06:24 18.48170 13.04367 35048 ft 509 kts 168°
2026-04-11 06:24 18.41436 13.06554 35048 ft 509 kts 168°
2026-04-11 06:25 18.34638 13.08759 35052 ft 509 kts 168°
2026-04-11 06:25 18.27892 13.10947 35048 ft 509 kts 168°
2026-04-11 06:26 18.21085 13.13152 35040 ft 509 kts 168°
2026-04-11 06:26 18.14345 13.15334 35052 ft 509 kts 168°
2026-04-11 06:27 18.07557 13.17530 35050 ft 509 kts 168°
2026-04-11 06:27 18.00780 13.19720 35047 ft 509 kts 168°
2026-04-11 06:28 17.94048 13.21894 35042 ft 509 kts 168°
2026-04-11 06:28 17.87276 13.24079 35047 ft 508 kts 168°
2026-04-11 06:29 17.81639 13.25896 35045 ft 508 kts 168°
2026-04-11 06:29 17.74866 13.28079 35047 ft 508 kts 168°
2026-04-11 06:30 17.68116 13.30252 35046 ft 508 kts 168°
2026-04-11 06:30 17.61360 13.32426 35046 ft 508 kts 168°
2026-04-11 06:31 17.54633 13.34589 35042 ft 508 kts 168°
2026-04-11 06:31 17.47850 13.36770 35042 ft 508 kts 168°
2026-04-11 06:32 17.41096 13.38947 35041 ft 507 kts 168°
2026-04-11 06:32 17.34366 13.41116 35046 ft 507 kts 168°
2026-04-11 06:33 17.27652 13.43278 35041 ft 507 kts 168°
2026-04-11 06:33 17.20907 13.45448 35035 ft 506 kts 168°
2026-04-11 06:34 17.14157 13.47618 35042 ft 506 kts 167°
2026-04-11 06:34 17.07421 13.49781 35034 ft 506 kts 167°
2026-04-11 06:35 17.00728 13.51929 35044 ft 506 kts 167°
2026-04-11 06:35 16.93985 13.54092 35025 ft 505 kts 167°
2026-04-11 06:36 16.87243 13.56253 35025 ft 505 kts 167°
2026-04-11 06:36 16.80564 13.58392 35033 ft 505 kts 167°
2026-04-11 06:37 16.73828 13.60548 35035 ft 505 kts 167°
2026-04-11 06:37 16.67105 13.62698 35030 ft 505 kts 167°
2026-04-11 06:38 16.60410 13.64838 35035 ft 505 kts 167°
2026-04-11 06:38 16.53664 13.66990 35032 ft 505 kts 167°
2026-04-11 06:39 16.46980 13.69114 35029 ft 505 kts 167°
2026-04-11 06:39 16.40249 13.71251 35032 ft 505 kts 167°
2026-04-11 06:40 16.33504 13.73394 35026 ft 505 kts 167°
2026-04-11 06:40 16.26802 13.75521 35024 ft 506 kts 167°
2026-04-11 06:41 16.20051 13.77662 35022 ft 506 kts 167°
2026-04-11 06:41 16.13340 13.79790 35024 ft 506 kts 167°
2026-04-11 06:42 16.06598 13.81925 35023 ft 506 kts 167°
2026-04-11 06:42 15.99851 13.84061 35024 ft 506 kts 167°
2026-04-11 06:43 15.93149 13.86181 35028 ft 505 kts 167°
2026-04-11 06:43 15.86417 13.88309 35018 ft 505 kts 167°
2026-04-11 06:44 15.79691 13.90434 35019 ft 505 kts 167°
2026-04-11 06:44 15.72960 13.92558 35021 ft 504 kts 167°
2026-04-11 06:45 15.66238 13.94678 35018 ft 504 kts 167°
2026-04-11 06:45 15.59577 13.96778 35019 ft 504 kts 167°
2026-04-11 06:46 15.52854 13.98896 35012 ft 504 kts 167°
2026-04-11 06:46 15.46146 14.01007 35011 ft 503 kts 167°
2026-04-11 06:47 15.39444 14.03115 35016 ft 503 kts 167°
2026-04-11 06:47 15.32771 14.05213 35004 ft 503 kts 167°
2026-04-11 06:48 15.26061 14.07321 35012 ft 502 kts 167°
2026-04-11 06:48 15.19410 14.09409 35009 ft 502 kts 167°
2026-04-11 06:49 15.12691 14.11517 35007 ft 502 kts 166°
2026-04-11 06:49 15.06034 14.13604 35003 ft 502 kts 167°
2026-04-11 06:50 14.99340 14.15701 35002 ft 501 kts 166°
2026-04-11 06:50 14.92653 14.17795 35000 ft 501 kts 166°
2026-04-11 06:51 14.86002 14.19876 34995 ft 501 kts 166°
2026-04-11 06:51 14.79310 14.21969 34997 ft 501 kts 166°
2026-04-11 06:52 14.72659 14.24048 34991 ft 501 kts 166°
2026-04-11 06:52 14.65977 14.26135 34991 ft 501 kts 166°
2026-04-11 06:53 14.59288 14.28223 34982 ft 502 kts 166°
2026-04-11 06:53 14.52591 14.30312 34983 ft 502 kts 166°
2026-04-11 06:54 14.45934 14.32388 34979 ft 502 kts 166°
2026-04-11 06:54 14.39226 14.34478 34979 ft 503 kts 166°
2026-04-11 06:55 14.32524 14.36561 34977 ft 503 kts 166°
2026-04-11 06:55 14.25855 14.38633 34972 ft 503 kts 166°
2026-04-11 06:56 14.19135 14.40720 34974 ft 503 kts 166°
2026-04-11 06:56 14.12424 14.42803 34968 ft 503 kts 166°
2026-04-11 06:57 14.05708 14.44887 34967 ft 504 kts 166°
2026-04-11 06:57 13.99026 14.46959 34964 ft 504 kts 166°
2026-04-11 06:58 13.92309 14.49041 34965 ft 504 kts 166°
2026-04-11 06:58 13.85586 14.51123 34959 ft 504 kts 166°
2026-04-11 06:59 13.78845 14.53209 34957 ft 505 kts 166°
2026-04-11 06:59 13.72143 14.55282 34951 ft 505 kts 166°
2026-04-11 07:00 13.65407 14.57365 34950 ft 505 kts 166°
2026-04-11 07:00 13.58663 14.59449 34950 ft 505 kts 166°
2026-04-11 07:01 13.51956 14.61520 34950 ft 505 kts 166°
2026-04-11 07:01 13.45212 14.63601 34943 ft 505 kts 166°
2026-04-11 07:02 13.38455 14.65685 34935 ft 505 kts 166°
2026-04-11 07:02 13.31724 14.67760 34937 ft 505 kts 166°
2026-04-11 07:03 13.25002 14.69830 34933 ft 505 kts 166°
2026-04-11 07:03 13.18313 14.71890 34933 ft 504 kts 166°
2026-04-11 07:04 13.11591 14.73958 34932 ft 504 kts 166°
2026-04-11 07:04 13.04860 14.76029 34931 ft 504 kts 166°
2026-04-11 07:05 12.98131 14.78096 34929 ft 504 kts 166°
2026-04-11 07:05 12.91412 14.80161 34933 ft 504 kts 166°
2026-04-11 07:06 12.84690 14.82224 34930 ft 504 kts 166°
2026-04-11 07:06 12.78017 14.84272 34930 ft 503 kts 166°
2026-04-11 07:07 12.71292 14.86334 34927 ft 503 kts 166°
2026-04-11 07:07 12.64562 14.88397 34931 ft 503 kts 166°
2026-04-11 07:08 12.57893 14.90440 34933 ft 503 kts 166°
2026-04-11 07:08 12.51155 14.92503 34930 ft 503 kts 166°
2026-04-11 07:09 12.44472 14.94548 34930 ft 503 kts 166°
2026-04-11 07:09 12.37755 14.96603 34924 ft 503 kts 166°
2026-04-11 07:10 12.27702 14.99675 34917 ft 503 kts 166°
2026-04-11 07:10 12.20998 15.01723 34912 ft 502 kts 166°
2026-04-11 07:11 12.14295 15.03770 34913 ft 501 kts 166°
2026-04-11 07:11 12.07572 15.05698 34913 ft 500 kts 167°
2026-04-11 07:12 12.00880 15.07514 34912 ft 500 kts 167°
2026-04-11 07:12 11.94147 15.09347 34918 ft 499 kts 167°
2026-04-11 07:13 11.87482 15.11181 34921 ft 499 kts 167°
2026-04-11 07:13 11.80765 15.13037 34925 ft 498 kts 167°
2026-04-11 07:14 11.75173 15.14582 34935 ft 498 kts 167°
2026-04-11 07:14 11.68467 15.16434 34923 ft 499 kts 167°
2026-04-11 07:15 11.61806 15.18271 34926 ft 498 kts 167°
2026-04-11 07:15 11.55086 15.20123 34925 ft 498 kts 167°
2026-04-11 07:16 11.48387 15.21969 34923 ft 498 kts 167°
2026-04-11 07:16 11.41728 15.23801 34923 ft 498 kts 167°
2026-04-11 07:17 11.35015 15.25649 34921 ft 498 kts 167°
2026-04-11 07:17 11.28350 15.27482 34921 ft 499 kts 167°
2026-04-11 07:18 11.21639 15.29328 34922 ft 499 kts 167°
2026-04-11 07:18 11.14917 15.31175 34921 ft 499 kts 167°
2026-04-11 07:19 11.08186 15.33024 34918 ft 500 kts 167°
2026-04-11 07:19 11.01506 15.34858 34919 ft 500 kts 167°
2026-04-11 07:20 10.94761 15.36709 34916 ft 500 kts 166°
2026-04-11 07:20 10.88071 15.38544 34917 ft 500 kts 166°
2026-04-11 07:21 10.81330 15.40393 34920 ft 501 kts 166°
2026-04-11 07:21 10.74633 15.42228 34922 ft 501 kts 166°
2026-04-11 07:22 10.67894 15.44074 34922 ft 501 kts 166°
2026-04-11 07:22 10.61165 15.45916 34924 ft 501 kts 166°
2026-04-11 07:23 10.54424 15.47761 34918 ft 501 kts 166°
2026-04-11 07:23 10.47678 15.49607 34917 ft 501 kts 166°
2026-04-11 07:24 10.40987 15.51436 34917 ft 501 kts 166°
2026-04-11 07:24 10.34248 15.53278 34922 ft 501 kts 166°
2026-04-11 07:25 10.27504 15.55121 34920 ft 501 kts 166°
2026-04-11 07:25 10.20764 15.56962 34922 ft 501 kts 166°
2026-04-11 07:26 10.14065 15.58791 34921 ft 500 kts 166°
2026-04-11 07:26 10.07322 15.60631 34922 ft 500 kts 166°
2026-04-11 07:27 10.00631 15.62458 34922 ft 500 kts 166°
2026-04-11 07:27 9.93911 15.64292 34925 ft 499 kts 166°
2026-04-11 07:28 9.87198 15.66124 34918 ft 499 kts 166°
2026-04-11 07:28 9.80491 15.67953 34923 ft 498 kts 166°
2026-04-11 07:29 9.73790 15.69779 34921 ft 497 kts 166°
2026-04-11 07:29 9.67148 15.71589 34922 ft 497 kts 166°
2026-04-11 07:30 9.60459 15.73411 34925 ft 496 kts 166°
2026-04-11 07:30 9.53777 15.75231 34926 ft 496 kts 166°
2026-04-11 07:31 9.47142 15.77037 34928 ft 496 kts 166°
2026-04-11 07:31 9.40457 15.78855 34930 ft 496 kts 166°
2026-04-11 07:32 9.33784 15.80668 34929 ft 496 kts 166°
2026-04-11 07:32 9.27147 15.82471 34931 ft 496 kts 166°
2026-04-11 07:33 9.20477 15.84283 34931 ft 495 kts 166°
2026-04-11 07:33 9.13808 15.86094 34934 ft 496 kts 166°
2026-04-11 07:34 9.07173 15.87895 34933 ft 496 kts 165°
2026-04-11 07:34 9.00483 15.89711 34935 ft 497 kts 166°
2026-04-11 07:35 8.93825 15.91517 34939 ft 497 kts 166°
2026-04-11 07:35 8.87122 15.93334 34961 ft 498 kts 166°
2026-04-11 07:36 8.80423 15.95150 34985 ft 498 kts 166°
2026-04-11 07:36 8.73745 15.96960 35002 ft 499 kts 166°
2026-04-11 07:37 8.67054 15.98772 35023 ft 499 kts 166°
2026-04-11 07:37 8.60337 16.00590 35019 ft 499 kts 166°
2026-04-11 07:38 8.53624 16.02407 35022 ft 499 kts 166°
2026-04-11 07:38 8.46946 16.04214 35003 ft 499 kts 166°
2026-04-11 07:39 8.40221 16.06033 34989 ft 499 kts 165°
2026-04-11 07:39 8.33553 16.07836 34971 ft 498 kts 165°
2026-04-11 07:40 8.26833 16.09652 34952 ft 498 kts 165°
2026-04-11 07:40 8.20174 16.11452 34958 ft 498 kts 165°
2026-04-11 07:41 8.13487 16.13258 34954 ft 498 kts 165°
2026-04-11 07:41 8.06782 16.15068 34958 ft 497 kts 165°
2026-04-11 07:42 8.00092 16.16874 34955 ft 497 kts 165°
2026-04-11 07:43 7.90051 16.19580 34956 ft 497 kts 165°
2026-04-11 07:43 7.83408 16.21370 34958 ft 496 kts 165°
2026-04-11 07:44 7.76724 16.23171 34960 ft 496 kts 165°
2026-04-11 07:44 7.70072 16.24963 34957 ft 495 kts 166°
2026-04-11 07:45 7.63402 16.26759 34962 ft 495 kts 166°
2026-04-11 07:45 7.56772 16.28543 34966 ft 495 kts 166°
2026-04-11 07:46 7.50123 16.30333 34963 ft 494 kts 166°
2026-04-11 07:46 7.43470 16.32123 34967 ft 494 kts 166°
2026-04-11 07:47 7.36868 16.33899 34968 ft 494 kts 166°
2026-04-11 07:47 7.30220 16.35686 34970 ft 494 kts 166°
2026-04-11 07:48 7.23565 16.37473 34975 ft 494 kts 166°
2026-04-11 07:48 7.16923 16.39254 34972 ft 494 kts 166°
2026-04-11 07:49 7.10266 16.41041 34974 ft 495 kts 166°
2026-04-11 07:49 7.03636 16.42820 34977 ft 495 kts 166°
2026-04-11 07:50 6.96966 16.44609 34982 ft 495 kts 166°
2026-04-11 07:50 6.90351 16.46382 34981 ft 495 kts 166°
2026-04-11 07:51 6.83664 16.48175 34987 ft 495 kts 166°
2026-04-11 07:51 6.76986 16.49965 34987 ft 496 kts 166°
2026-04-11 07:52 6.70358 16.51741 34987 ft 495 kts 166°
2026-04-11 07:52 6.63672 16.53532 34996 ft 495 kts 166°
2026-04-11 07:53 6.57045 16.55306 34994 ft 495 kts 166°
2026-04-11 07:53 6.50363 16.57094 34993 ft 495 kts 166°
2026-04-11 07:54 6.43698 16.58878 34995 ft 495 kts 166°
2026-04-11 07:54 6.37071 16.60652 34993 ft 495 kts 166°
2026-04-11 07:55 6.30404 16.62436 34994 ft 495 kts 166°
2026-04-11 07:55 6.23746 16.64216 34993 ft 495 kts 166°
2026-04-11 07:56 6.17118 16.65988 34996 ft 495 kts 166°
2026-04-11 07:56 6.10455 16.67767 34999 ft 495 kts 166°
2026-04-11 07:57 6.03780 16.69548 35000 ft 495 kts 166°
2026-04-11 07:57 5.97162 16.71314 35000 ft 495 kts 165°
2026-04-11 07:58 5.90482 16.73097 35004 ft 494 kts 165°
2026-04-11 07:58 5.83871 16.74860 35001 ft 494 kts 165°
2026-04-11 07:59 5.77208 16.76638 35006 ft 494 kts 165°
2026-04-11 07:59 5.70563 16.78410 35009 ft 494 kts 165°
2026-04-11 08:00 5.63942 16.80175 35005 ft 493 kts 165°
2026-04-11 08:00 5.57304 16.81945 35000 ft 493 kts 165°
2026-04-11 08:01 5.51740 16.83427 35005 ft 494 kts 165°
2026-04-11 08:01 5.45136 16.85187 35009 ft 494 kts 165°
2026-04-11 08:02 5.38480 16.86960 35007 ft 494 kts 165°
2026-04-11 08:02 5.31857 16.88724 35008 ft 495 kts 165°
2026-04-11 08:03 5.25183 16.90501 35008 ft 495 kts 165°
2026-04-11 08:03 5.18512 16.92277 35006 ft 495 kts 164°
2026-04-11 08:04 5.11888 16.94040 35016 ft 495 kts 164°
2026-04-11 08:04 5.05229 16.95813 35019 ft 495 kts 164°
2026-04-11 08:05 4.98552 16.97588 35114 ft 497 kts 164°
2026-04-11 08:05 4.95208 16.98476 35438 ft 495 kts 164°
2026-04-11 08:05 4.91933 16.99346 35841 ft 492 kts 164°
2026-04-11 08:05 4.88631 17.00223 36245 ft 489 kts 164°
2026-04-11 08:06 4.85345 17.01096 36616 ft 486 kts 164°
2026-04-11 08:06 4.82093 17.01961 36919 ft 486 kts 164°
2026-04-11 08:06 4.78791 17.02838 36956 ft 490 kts 164°
2026-04-11 08:07 4.72165 17.04599 36998 ft 490 kts 165°
2026-04-11 08:07 4.65653 17.06329 37000 ft 483 kts 165°
2026-04-11 08:08 4.55941 17.08909 37007 ft 482 kts 165°
2026-04-11 08:08 4.49449 17.10635 37010 ft 481 kts 165°
2026-04-11 08:09 4.42961 17.12360 37009 ft 482 kts 165°
2026-04-11 08:09 4.36459 17.14089 37010 ft 483 kts 165°
2026-04-11 08:10 4.29982 17.15810 37007 ft 484 kts 165°
2026-04-11 08:10 4.23461 17.17545 37010 ft 484 kts 165°
2026-04-11 08:11 4.16974 17.19273 37013 ft 485 kts 165°
2026-04-11 08:11 4.10444 17.21013 37003 ft 485 kts 164°
2026-04-11 08:12 4.03894 17.22757 37005 ft 485 kts 164°
2026-04-11 08:12 3.97409 17.24483 37001 ft 485 kts 164°
2026-04-11 08:13 3.90881 17.26221 37005 ft 484 kts 164°
2026-04-11 08:13 3.84373 17.27954 37008 ft 483 kts 164°
2026-04-11 08:14 3.77861 17.29687 37004 ft 483 kts 164°
2026-04-11 08:14 3.71400 17.31406 37008 ft 482 kts 164°
2026-04-11 08:15 3.64895 17.33135 37004 ft 482 kts 164°
2026-04-11 08:15 3.58451 17.34846 37006 ft 481 kts 164°
2026-04-11 08:16 3.51950 17.36572 37007 ft 481 kts 164°
2026-04-11 08:16 3.45513 17.38282 37002 ft 481 kts 164°
2026-04-11 08:17 3.39031 17.40003 37001 ft 481 kts 164°
2026-04-11 08:17 3.32550 17.41724 37003 ft 481 kts 164°
2026-04-11 08:18 3.26119 17.43432 37004 ft 481 kts 164°
2026-04-11 08:18 3.19632 17.45154 37000 ft 481 kts 164°
2026-04-11 08:19 3.13158 17.46872 37003 ft 481 kts 164°
2026-04-11 08:19 3.06714 17.48582 37003 ft 481 kts 164°
2026-04-11 08:20 3.00248 17.50298 37003 ft 481 kts 164°
2026-04-11 08:20 2.93788 17.52012 37003 ft 481 kts 164°
2026-04-11 08:21 2.87316 17.53729 37002 ft 481 kts 164°
2026-04-11 08:21 2.80830 17.55450 37005 ft 481 kts 164°
2026-04-11 08:22 2.74359 17.57166 37003 ft 481 kts 164°
2026-04-11 08:22 2.67890 17.58882 37001 ft 480 kts 164°
2026-04-11 08:23 2.61453 17.60589 37002 ft 480 kts 164°
2026-04-11 08:23 2.54977 17.62306 37003 ft 480 kts 164°
2026-04-11 08:24 2.48528 17.64016 37003 ft 480 kts 164°
2026-04-11 08:24 2.42060 17.65731 36997 ft 480 kts 164°
2026-04-11 08:25 2.35624 17.67435 37001 ft 480 kts 165°
2026-04-11 08:25 2.29137 17.69111 36999 ft 480 kts 165°
2026-04-11 08:26 2.22647 17.70782 37000 ft 480 kts 165°
2026-04-11 08:26 2.16228 17.72468 37001 ft 480 kts 164°
2026-04-11 08:27 2.09760 17.74190 37004 ft 480 kts 164°
2026-04-11 08:27 2.03289 17.75909 37001 ft 480 kts 164°
2026-04-11 08:28 1.96854 17.77614 37003 ft 480 kts 165°
2026-04-11 08:28 1.90391 17.79326 37003 ft 480 kts 165°
2026-04-11 08:29 1.83915 17.81042 37003 ft 481 kts 165°
2026-04-11 08:29 1.77435 17.82758 37001 ft 481 kts 165°
2026-04-11 08:30 1.70998 17.84462 37000 ft 481 kts 165°
2026-04-11 08:30 1.64513 17.86180 37001 ft 481 kts 165°
2026-04-11 08:31 1.58027 17.87899 37003 ft 481 kts 165°
2026-04-11 08:31 1.51576 17.89608 37002 ft 481 kts 165°
2026-04-11 08:32 1.45119 17.91318 37001 ft 481 kts 165°
2026-04-11 08:32 1.38627 17.93038 37001 ft 482 kts 165°
2026-04-11 08:33 1.32129 17.94759 37006 ft 482 kts 165°
2026-04-11 08:33 1.25671 17.96464 37004 ft 482 kts 165°
2026-04-11 08:34 1.19163 17.98182 37006 ft 482 kts 165°
2026-04-11 08:34 1.12699 17.99890 37004 ft 482 kts 165°
2026-04-11 08:35 1.06198 18.01608 37003 ft 483 kts 165°
2026-04-11 08:35 0.99696 18.03326 37005 ft 483 kts 165°
2026-04-11 08:36 0.93188 18.05045 37006 ft 482 kts 165°
2026-04-11 08:36 0.86723 18.06754 37006 ft 482 kts 165°
2026-04-11 08:37 0.80223 18.08471 37006 ft 482 kts 165°
2026-04-11 08:37 0.73774 18.10175 37006 ft 482 kts 165°
2026-04-11 08:38 0.67270 18.11893 37001 ft 482 kts 165°
2026-04-11 08:38 0.60816 18.13599 37005 ft 481 kts 165°
2026-04-11 08:39 0.54329 18.15314 37006 ft 481 kts 165°
2026-04-11 08:39 0.47856 18.17029 37006 ft 481 kts 165°
2026-04-11 08:40 0.41392 18.18743 37005 ft 480 kts 165°
2026-04-11 08:40 0.34920 18.20458 37003 ft 480 kts 165°
2026-04-11 08:41 0.28495 18.22161 37006 ft 480 kts 165°
2026-04-11 08:41 0.22037 18.23872 37002 ft 480 kts 165°
2026-04-11 08:42 0.15574 18.25585 37002 ft 480 kts 165°
2026-04-11 08:43 0.05926 18.28142 37000 ft 480 kts 165°
2026-04-11 08:43 -0.00599 18.29601 36996 ft 480 kts 168°
2026-04-11 08:44 -0.07172 18.30847 36997 ft 480 kts 169°
2026-04-11 08:44 -0.13707 18.32078 36997 ft 480 kts 169°
2026-04-11 08:45 -0.20269 18.33336 37003 ft 480 kts 169°
2026-04-11 08:45 -0.26799 18.34600 37000 ft 480 kts 168°
2026-04-11 08:46 -0.32258 18.35659 36995 ft 480 kts 168°
2026-04-11 08:46 -0.38831 18.36934 36997 ft 479 kts 169°
2026-04-11 08:47 -0.45384 18.38203 36995 ft 479 kts 169°
2026-04-11 08:47 -0.51902 18.39466 36997 ft 479 kts 169°
2026-04-11 08:48 -0.58447 18.40734 36997 ft 479 kts 169°
2026-04-11 08:48 -0.64963 18.41996 36998 ft 478 kts 169°
2026-04-11 08:49 -0.71519 18.43266 36993 ft 478 kts 169°
2026-04-11 08:49 -0.78014 18.44525 37001 ft 478 kts 169°
2026-04-11 08:50 -0.84522 18.45786 37003 ft 477 kts 169°
2026-04-11 08:50 -0.91060 18.47053 36998 ft 477 kts 169°
2026-04-11 08:51 -0.97587 18.48317 36995 ft 477 kts 169°
2026-04-11 08:51 -1.04069 18.49573 36997 ft 477 kts 169°
2026-04-11 08:52 -1.13844 18.51468 36995 ft 477 kts 169°
2026-04-11 08:52 -1.20384 18.52735 36997 ft 477 kts 169°
2026-04-11 08:53 -1.26864 18.53991 36997 ft 477 kts 169°
2026-04-11 08:53 -1.33383 18.55255 36991 ft 477 kts 169°
2026-04-11 08:54 -1.39913 18.56520 36991 ft 477 kts 169°
2026-04-11 08:54 -1.46403 18.57778 36993 ft 477 kts 169°
2026-04-11 08:55 -1.52934 18.59044 36993 ft 478 kts 169°
2026-04-11 08:55 -1.59483 18.60314 36995 ft 478 kts 169°
2026-04-11 08:56 -1.65986 18.61575 36991 ft 478 kts 169°
2026-04-11 08:56 -1.72547 18.62847 36991 ft 479 kts 169°
2026-04-11 08:57 -1.79052 18.64108 36990 ft 479 kts 169°
2026-04-11 08:57 -1.85605 18.65379 36998 ft 480 kts 169°
2026-04-11 08:58 -1.92180 18.66654 36990 ft 480 kts 169°
2026-04-11 08:58 -1.98747 18.67928 36994 ft 481 kts 169°
2026-04-11 08:59 -2.05276 18.69194 37009 ft 481 kts 169°
2026-04-11 08:59 -2.11883 18.70476 36981 ft 483 kts 169°
2026-04-11 09:00 -2.18462 18.71752 36986 ft 482 kts 169°
2026-04-11 09:00 -2.25049 18.73030 36994 ft 481 kts 169°
2026-04-11 09:01 -2.31629 18.74307 36990 ft 480 kts 169°
2026-04-11 09:01 -2.38148 18.75572 36986 ft 478 kts 169°
2026-04-11 09:02 -2.44684 18.76840 36987 ft 477 kts 169°
2026-04-11 09:02 -2.51204 18.78106 36994 ft 476 kts 169°
2026-04-11 09:03 -2.57709 18.79369 36990 ft 476 kts 169°
2026-04-11 09:03 -2.64169 18.80623 36997 ft 475 kts 169°
2026-04-11 09:04 -2.70674 18.81886 36994 ft 475 kts 169°
2026-04-11 09:04 -2.77168 18.83149 36995 ft 474 kts 168°
2026-04-11 09:05 -2.83620 18.84406 36993 ft 474 kts 168°
2026-04-11 09:05 -2.90109 18.85671 36993 ft 475 kts 168°
2026-04-11 09:06 -2.96609 18.86938 36994 ft 475 kts 168°
2026-04-11 09:06 -3.03110 18.88205 36996 ft 476 kts 168°
2026-04-11 09:07 -3.09578 18.89466 36995 ft 477 kts 168°
2026-04-11 09:07 -3.16101 18.90738 36997 ft 478 kts 168°
2026-04-11 09:08 -3.22650 18.92015 36998 ft 479 kts 168°
2026-04-11 09:08 -3.29169 18.93286 36996 ft 480 kts 168°
2026-04-11 09:09 -3.35746 18.94569 37001 ft 480 kts 168°
2026-04-11 09:09 -3.42302 18.95849 36995 ft 480 kts 168°
2026-04-11 09:10 -3.48831 18.97122 36998 ft 479 kts 168°
2026-04-11 09:10 -3.55391 18.98402 36999 ft 479 kts 168°
2026-04-11 09:11 -3.61951 18.99683 36999 ft 479 kts 168°
2026-04-11 09:11 -3.68451 19.00952 37002 ft 478 kts 168°
2026-04-11 09:12 -3.74985 19.02228 37006 ft 478 kts 168°
2026-04-11 09:12 -3.81527 19.03505 37006 ft 478 kts 168°
2026-04-11 09:13 -3.88023 19.04774 37007 ft 478 kts 168°
2026-04-11 09:13 -3.94562 19.06050 37008 ft 478 kts 168°
2026-04-11 09:14 -4.01072 19.07316 37003 ft 478 kts 168°
2026-04-11 09:14 -4.07611 19.08588 37004 ft 479 kts 168°
2026-04-11 09:15 -4.14164 19.09865 37003 ft 479 kts 168°
2026-04-11 09:15 -4.20702 19.11139 37006 ft 479 kts 168°
2026-04-11 09:16 -4.27262 19.12417 37004 ft 479 kts 169°
2026-04-11 09:16 -4.33790 19.13689 37000 ft 480 kts 168°
2026-04-11 09:17 -4.40324 19.14963 37001 ft 479 kts 169°
2026-04-11 09:17 -4.46887 19.16243 36999 ft 479 kts 169°
2026-04-11 09:18 -4.53437 19.17520 37001 ft 479 kts 169°
2026-04-11 09:18 -4.59982 19.18796 37001 ft 478 kts 169°
2026-04-11 09:19 -4.66476 19.20063 37003 ft 478 kts 169°
2026-04-11 09:19 -4.73017 19.21339 37001 ft 478 kts 169°
2026-04-11 09:20 -4.79554 19.22615 37005 ft 477 kts 169°
2026-04-11 09:20 -4.86046 19.23883 37002 ft 477 kts 169°
2026-04-11 09:21 -4.92583 19.25159 37003 ft 477 kts 169°
2026-04-11 09:21 -4.99076 19.26427 37006 ft 477 kts 169°
2026-04-11 09:22 -5.05631 19.27708 37004 ft 478 kts 169°
2026-04-11 09:22 -5.12128 19.28977 37008 ft 478 kts 169°
2026-04-11 09:23 -5.18565 19.30680 37010 ft 478 kts 162°
2026-04-11 09:23 -5.24863 19.32853 37014 ft 479 kts 161°
2026-04-11 09:24 -5.31139 19.35030 37006 ft 479 kts 162°
2026-04-11 09:24 -5.37461 19.37189 37011 ft 480 kts 162°
2026-04-11 09:25 -5.43795 19.39339 37010 ft 480 kts 162°
2026-04-11 09:25 -5.50103 19.41477 37005 ft 480 kts 162°
2026-04-11 09:26 -5.56437 19.43628 37011 ft 480 kts 162°
2026-04-11 09:26 -5.62778 19.45783 37012 ft 480 kts 162°
2026-04-11 09:27 -5.69111 19.47935 37009 ft 480 kts 162°
2026-04-11 09:27 -5.75441 19.50087 37012 ft 480 kts 162°
2026-04-11 09:28 -5.81733 19.52226 37012 ft 480 kts 162°
2026-04-11 09:28 -5.88138 19.54130 37013 ft 479 kts 167°
2026-04-11 09:29 -5.94595 19.55712 37012 ft 479 kts 167°
2026-04-11 09:29 -6.01088 19.57290 37006 ft 480 kts 167°
2026-04-11 09:30 -6.07582 19.58895 37005 ft 480 kts 167°
2026-04-11 09:30 -6.14043 19.60505 37006 ft 480 kts 167°
2026-04-11 09:31 -6.20532 19.62125 37000 ft 480 kts 167°
2026-04-11 09:31 -6.25952 19.63477 37000 ft 481 kts 167°
2026-04-11 09:32 -6.33515 19.65364 37003 ft 481 kts 167°
2026-04-11 09:32 -6.38922 19.66713 37000 ft 482 kts 167°
2026-04-11 09:33 -6.45430 19.68338 37005 ft 482 kts 167°
2026-04-11 09:33 -6.51950 19.69965 37002 ft 482 kts 167°
2026-04-11 09:34 -6.58464 19.71592 37001 ft 482 kts 167°
2026-04-11 09:34 -6.64987 19.73222 37002 ft 482 kts 167°
2026-04-11 09:35 -6.71464 19.74841 37006 ft 481 kts 167°
2026-04-11 09:35 -6.77945 19.76458 37007 ft 481 kts 167°
2026-04-11 09:36 -6.84497 19.77957 37005 ft 480 kts 169°
2026-04-11 09:36 -6.90993 19.79379 37004 ft 480 kts 169°
2026-04-11 09:37 -6.97526 19.80827 37007 ft 479 kts 168°
2026-04-11 09:37 -7.04024 19.82283 37009 ft 478 kts 168°
2026-04-11 09:38 -7.10527 19.83744 37007 ft 478 kts 169°
2026-04-11 09:38 -7.16995 19.85195 37011 ft 478 kts 169°
2026-04-11 09:39 -7.23469 19.86647 37012 ft 478 kts 169°
2026-04-11 09:39 -7.29964 19.88114 37011 ft 477 kts 168°
2026-04-11 09:40 -7.36452 19.89587 37009 ft 477 kts 168°
2026-04-11 09:40 -7.42905 19.91053 37011 ft 477 kts 168°
2026-04-11 09:41 -7.49352 19.92516 37014 ft 476 kts 168°
2026-04-11 09:41 -7.55826 19.93986 37015 ft 476 kts 168°
2026-04-11 09:42 -7.62297 19.95455 37014 ft 476 kts 169°
2026-04-11 09:43 -7.71972 19.97653 37018 ft 476 kts 169°
2026-04-11 09:43 -7.78451 19.99126 37021 ft 476 kts 169°
2026-04-11 09:44 -7.84919 20.00596 37029 ft 476 kts 169°
2026-04-11 09:44 -7.91340 20.02057 37022 ft 476 kts 169°
2026-04-11 09:45 -7.97813 20.03529 37027 ft 475 kts 169°
2026-04-11 09:45 -8.04236 20.05004 37030 ft 475 kts 168°
2026-04-11 09:46 -8.10695 20.06508 37024 ft 475 kts 168°
2026-04-11 09:46 -8.17131 20.08007 37032 ft 475 kts 168°
2026-04-11 09:47 -8.23573 20.09506 37034 ft 475 kts 168°
2026-04-11 09:47 -8.30021 20.11005 37031 ft 475 kts 169°
2026-04-11 09:48 -8.36438 20.12497 37035 ft 475 kts 169°
2026-04-11 09:48 -8.42897 20.13999 37031 ft 475 kts 169°
2026-04-11 09:49 -8.49317 20.15494 37035 ft 475 kts 169°
2026-04-11 09:49 -8.55772 20.16996 37036 ft 475 kts 169°
2026-04-11 09:50 -8.62199 20.18493 37032 ft 476 kts 169°
2026-04-11 09:50 -8.68634 20.19992 37037 ft 476 kts 169°
2026-04-11 09:51 -8.75100 20.21499 37034 ft 476 kts 169°
2026-04-11 09:51 -8.81559 20.23004 37038 ft 476 kts 169°
2026-04-11 09:52 -8.87987 20.24504 37037 ft 476 kts 169°
2026-04-11 09:52 -8.94462 20.26014 37037 ft 477 kts 169°
2026-04-11 09:53 -9.00931 20.27524 37034 ft 477 kts 169°
2026-04-11 09:53 -9.07406 20.29036 37038 ft 477 kts 169°
2026-04-11 09:54 -9.13835 20.30537 37040 ft 477 kts 169°
2026-04-11 09:54 -9.20325 20.32054 37038 ft 477 kts 169°
2026-04-11 09:55 -9.26802 20.33568 37037 ft 477 kts 169°
2026-04-11 09:55 -9.33289 20.35085 37043 ft 478 kts 169°
2026-04-11 09:56 -9.39730 20.36591 37040 ft 478 kts 169°
2026-04-11 09:56 -9.46220 20.38110 37042 ft 478 kts 169°
2026-04-11 09:57 -9.52673 20.39621 37044 ft 478 kts 169°
2026-04-11 09:57 -9.59170 20.41143 37042 ft 478 kts 169°
2026-04-11 09:58 -9.65668 20.42665 37045 ft 478 kts 169°
2026-04-11 09:58 -9.72023 20.44588 37044 ft 480 kts 161°
2026-04-11 09:59 -9.78246 20.47106 37049 ft 480 kts 160°
2026-04-11 09:59 -9.84419 20.49635 37046 ft 480 kts 160°
2026-04-11 10:00 -9.90632 20.52151 37049 ft 480 kts 160°
2026-04-11 10:00 -9.96839 20.54646 37047 ft 480 kts 160°
2026-04-11 10:01 -10.03045 20.57135 37047 ft 479 kts 160°
2026-04-11 10:01 -10.09224 20.59616 37043 ft 479 kts 160°
2026-04-11 10:02 -10.15434 20.62111 37048 ft 479 kts 160°
2026-04-11 10:02 -10.21634 20.64603 37042 ft 478 kts 160°
2026-04-11 10:03 -10.27820 20.67092 37047 ft 477 kts 160°
2026-04-11 10:03 -10.33963 20.69563 37052 ft 477 kts 160°
2026-04-11 10:04 -10.40145 20.72052 37048 ft 477 kts 160°
2026-04-11 10:04 -10.46288 20.74526 37049 ft 477 kts 160°
2026-04-11 10:05 -10.52475 20.77018 37050 ft 477 kts 160°
2026-04-11 10:05 -10.58657 20.79510 37045 ft 477 kts 160°
2026-04-11 10:06 -10.64811 20.81991 37049 ft 477 kts 160°
2026-04-11 10:06 -10.70961 20.84473 37050 ft 477 kts 160°
2026-04-11 10:07 -10.77136 20.86965 37052 ft 477 kts 160°
2026-04-11 10:07 -10.83321 20.89462 37052 ft 477 kts 160°
2026-04-11 10:08 -10.89516 20.91964 37052 ft 477 kts 160°
2026-04-11 10:08 -10.95653 20.94444 37053 ft 478 kts 160°
2026-04-11 10:09 -11.01842 20.96946 37056 ft 478 kts 160°
2026-04-11 10:09 -11.07999 20.99437 37055 ft 478 kts 160°
2026-04-11 10:10 -11.14188 21.01941 37055 ft 478 kts 160°
2026-04-11 10:10 -11.20387 21.04451 37057 ft 478 kts 160°
2026-04-11 10:11 -11.26543 21.06945 37057 ft 478 kts 160°
2026-04-11 10:11 -11.32735 21.09454 37055 ft 478 kts 160°
2026-04-11 10:12 -11.38932 21.11967 37057 ft 478 kts 160°
2026-04-11 10:12 -11.45084 21.14462 37055 ft 478 kts 160°
2026-04-11 10:13 -11.51292 21.16981 37058 ft 478 kts 160°
2026-04-11 10:13 -11.57451 21.19481 37055 ft 479 kts 160°
2026-04-11 10:14 -11.63649 21.21999 37058 ft 479 kts 160°
2026-04-11 10:14 -11.69804 21.24501 37055 ft 478 kts 160°
2026-04-11 10:15 -11.76004 21.27021 37067 ft 478 kts 160°
2026-04-11 10:15 -11.82200 21.29541 37056 ft 478 kts 160°
2026-04-11 10:16 -11.88392 21.32062 37062 ft 478 kts 160°
2026-04-11 10:16 -11.94542 21.34566 37063 ft 478 kts 160°
2026-04-11 10:17 -12.00739 21.37090 37062 ft 478 kts 160°
2026-04-11 10:17 -12.06889 21.39598 37060 ft 478 kts 160°
2026-04-11 10:18 -12.13064 21.42116 37063 ft 478 kts 160°
2026-04-11 10:18 -12.19260 21.44643 37058 ft 478 kts 160°
2026-04-11 10:19 -12.25442 21.47167 37054 ft 479 kts 160°
2026-04-11 10:19 -12.31613 21.49687 37056 ft 479 kts 160°
2026-04-11 10:20 -12.37814 21.52221 37054 ft 480 kts 160°
2026-04-11 10:20 -12.43992 21.54746 37062 ft 480 kts 160°
2026-04-11 10:21 -12.49155 21.56858 37064 ft 480 kts 160°
2026-04-11 10:21 -12.55385 21.59407 37062 ft 481 kts 160°
2026-04-11 10:22 -12.61601 21.61953 37063 ft 481 kts 160°
2026-04-11 10:22 -12.67794 21.64490 37061 ft 481 kts 160°
2026-04-11 10:23 -12.74022 21.67043 37068 ft 481 kts 160°
2026-04-11 10:23 -12.80197 21.69576 37058 ft 481 kts 160°
2026-04-11 10:24 -12.86428 21.72132 37058 ft 481 kts 160°
2026-04-11 10:24 -12.92649 21.74687 37060 ft 480 kts 160°
2026-04-11 10:25 -12.98827 21.77182 37052 ft 480 kts 161°
2026-04-11 10:25 -13.05088 21.79556 37059 ft 479 kts 162°
2026-04-11 10:26 -13.11357 21.81918 37057 ft 478 kts 162°
2026-04-11 10:26 -13.17579 21.84284 37059 ft 478 kts 162°
2026-04-11 10:27 -13.23819 21.86670 37065 ft 478 kts 161°
2026-04-11 10:27 -13.30027 21.89046 37058 ft 478 kts 161°
2026-04-11 10:28 -13.36282 21.91439 37057 ft 478 kts 161°
2026-04-11 10:28 -13.42491 21.93817 37058 ft 478 kts 161°
2026-04-11 10:29 -13.48736 21.96209 37054 ft 478 kts 161°
2026-04-11 10:29 -13.54941 21.98589 37055 ft 478 kts 161°
2026-04-11 10:30 -13.61187 22.00982 37055 ft 478 kts 161°
2026-04-11 10:30 -13.67404 22.03346 37059 ft 478 kts 161°
2026-04-11 10:31 -13.73654 22.05719 37059 ft 479 kts 161°
2026-04-11 10:31 -13.79914 22.08100 37055 ft 479 kts 161°
2026-04-11 10:32 -13.86185 22.10489 37058 ft 479 kts 161°
2026-04-11 10:32 -13.92391 22.12855 37064 ft 477 kts 162°
2026-04-11 10:33 -13.98610 22.15227 37052 ft 474 kts 162°
2026-04-11 10:33 -14.04761 22.17574 37049 ft 471 kts 162°
2026-04-11 10:34 -14.10894 22.19916 37052 ft 469 kts 161°
2026-04-11 10:34 -14.17008 22.22251 37052 ft 468 kts 161°
2026-04-11 10:35 -14.23138 22.24594 37057 ft 469 kts 161°
2026-04-11 10:35 -14.29239 22.26928 37053 ft 470 kts 161°
2026-04-11 10:36 -14.35385 22.29280 37053 ft 472 kts 161°
2026-04-11 10:36 -14.41558 22.31649 37054 ft 474 kts 160°
2026-04-11 10:37 -14.47651 22.34298 37059 ft 475 kts 158°
2026-04-11 10:37 -14.53668 22.37042 37057 ft 476 kts 158°
2026-04-11 10:38 -14.59750 22.39811 37055 ft 477 kts 158°
2026-04-11 10:38 -14.68852 22.43920 37050 ft 477 kts 158°
2026-04-11 10:39 -14.74943 22.46665 37049 ft 477 kts 158°
2026-04-11 10:39 -14.81035 22.49412 37051 ft 477 kts 158°
2026-04-11 10:40 -14.87101 22.52151 37052 ft 477 kts 158°
2026-04-11 10:40 -14.93182 22.54897 37046 ft 477 kts 158°
2026-04-11 10:41 -14.99279 22.57653 37048 ft 477 kts 158°
2026-04-11 10:41 -15.05342 22.60395 37046 ft 477 kts 158°
2026-04-11 10:42 -15.11421 22.63147 37046 ft 477 kts 158°
2026-04-11 10:42 -15.17521 22.65909 37044 ft 477 kts 158°
2026-04-11 10:43 -15.26621 22.70033 37046 ft 478 kts 158°
2026-04-11 10:44 -15.32717 22.72798 37043 ft 478 kts 158°
2026-04-11 10:44 -15.38830 22.75573 37034 ft 479 kts 158°
2026-04-11 10:45 -15.44955 22.78355 37040 ft 479 kts 158°
2026-04-11 10:45 -15.51039 22.81120 37035 ft 480 kts 158°
2026-04-11 10:46 -15.57168 22.83908 37040 ft 480 kts 158°
2026-04-11 10:46 -15.63253 22.86677 37035 ft 480 kts 158°
2026-04-11 10:47 -15.69446 22.89328 37045 ft 480 kts 160°
2026-04-11 10:47 -15.75650 22.91846 37036 ft 480 kts 160°
2026-04-11 10:48 -15.81880 22.94385 37037 ft 480 kts 160°
2026-04-11 10:48 -15.88099 22.96950 37038 ft 480 kts 160°
2026-04-11 10:49 -15.94319 22.99528 37035 ft 481 kts 160°
2026-04-11 10:49 -16.00503 23.02094 37037 ft 481 kts 160°
2026-04-11 10:50 -16.06740 23.04683 37039 ft 481 kts 160°
2026-04-11 10:50 -16.12969 23.07269 37035 ft 482 kts 160°
2026-04-11 10:51 -16.19166 23.09843 37031 ft 482 kts 160°
2026-04-11 10:51 -16.25398 23.12434 37039 ft 482 kts 160°
2026-04-11 10:52 -16.31641 23.15031 37036 ft 482 kts 160°
2026-04-11 10:52 -16.37832 23.17609 37038 ft 482 kts 160°
2026-04-11 10:53 -16.44092 23.20218 37038 ft 483 kts 160°
2026-04-11 10:53 -16.50331 23.22818 37038 ft 483 kts 160°
2026-04-11 10:54 -16.56557 23.25414 37033 ft 483 kts 160°
2026-04-11 10:54 -16.62823 23.28030 37040 ft 484 kts 160°
2026-04-11 10:55 -16.69036 23.30627 37021 ft 484 kts 160°
2026-04-11 10:55 -16.75311 23.33249 37038 ft 485 kts 160°
2026-04-11 10:56 -16.81398 23.35796 37035 ft 485 kts 160°
2026-04-11 10:56 -16.87691 23.38431 37039 ft 486 kts 160°
2026-04-11 10:57 -16.93946 23.41052 37055 ft 486 kts 160°
2026-04-11 10:57 -17.00205 23.43676 37062 ft 486 kts 160°
2026-04-11 10:58 -17.06491 23.46311 37070 ft 487 kts 160°
2026-04-11 10:58 -17.12795 23.48958 37057 ft 487 kts 159°
2026-04-11 10:59 -17.19056 23.51590 37068 ft 487 kts 159°
2026-04-11 10:59 -17.25359 23.54241 37079 ft 487 kts 160°
2026-04-11 11:00 -17.31634 23.56881 37070 ft 488 kts 160°
2026-04-11 11:00 -17.37943 23.59538 37088 ft 488 kts 160°
2026-04-11 11:01 -17.44217 23.62182 37080 ft 488 kts 160°
2026-04-11 11:01 -17.50527 23.64844 37078 ft 488 kts 159°
2026-04-11 11:02 -17.56815 23.67498 37090 ft 488 kts 159°
2026-04-11 11:02 -17.63020 23.70410 37082 ft 489 kts 156°
2026-04-11 11:03 -17.69150 23.73491 37085 ft 489 kts 156°
2026-04-11 11:03 -17.75375 23.76434 37090 ft 489 kts 159°
2026-04-11 11:04 -17.81653 23.79132 37099 ft 489 kts 159°
2026-04-11 11:04 -17.87954 23.81887 37094 ft 490 kts 159°
2026-04-11 11:05 -17.94225 23.84649 37096 ft 490 kts 159°
2026-04-11 11:05 -18.00525 23.87382 37088 ft 490 kts 159°
2026-04-11 11:06 -18.06828 23.90118 37090 ft 490 kts 159°
2026-04-11 11:06 -18.13118 23.92857 37091 ft 491 kts 159°
2026-04-11 11:07 -18.19438 23.95615 37096 ft 491 kts 159°
2026-04-11 11:07 -18.25724 23.98359 37098 ft 491 kts 159°
2026-04-11 11:08 -18.32034 24.01114 37095 ft 491 kts 159°
2026-04-11 11:08 -18.38347 24.03939 37206 ft 493 kts 158°
2026-04-11 11:08 -18.41486 24.05396 37544 ft 492 kts 157°
2026-04-11 11:09 -18.44583 24.06841 37959 ft 490 kts 157°
2026-04-11 11:09 -18.47696 24.08293 38364 ft 487 kts 158°
2026-04-11 11:09 -18.50793 24.09733 38742 ft 486 kts 158°
2026-04-11 11:09 -18.52851 24.10688 38937 ft 485 kts 158°
2026-04-11 11:10 -18.55960 24.12127 39019 ft 489 kts 158°
2026-04-11 11:10 -18.62229 24.15026 39091 ft 490 kts 158°
2026-04-11 11:11 -18.68442 24.17903 39088 ft 485 kts 158°
2026-04-11 11:11 -18.74568 24.20742 39088 ft 482 kts 158°
2026-04-11 11:12 -18.80713 24.23593 39092 ft 481 kts 158°
2026-04-11 11:12 -18.86856 24.26445 39091 ft 481 kts 158°
2026-04-11 11:13 -18.92992 24.29239 39092 ft 482 kts 160°
2026-04-11 11:13 -18.99237 24.31774 39090 ft 483 kts 161°
2026-04-11 11:14 -19.05542 24.34326 39088 ft 485 kts 160°
2026-04-11 11:14 -19.11812 24.36918 39086 ft 486 kts 160°
2026-04-11 11:15 -19.18101 24.39653 39085 ft 487 kts 158°
2026-04-11 11:15 -19.24317 24.42456 39087 ft 488 kts 158°
2026-04-11 11:16 -19.30572 24.45266 39086 ft 488 kts 159°
2026-04-11 11:16 -19.36841 24.48066 39083 ft 488 kts 159°
2026-04-11 11:17 -19.43085 24.50852 39082 ft 487 kts 159°
2026-04-11 11:17 -19.49297 24.53627 39081 ft 487 kts 159°
2026-04-11 11:18 -19.55567 24.56431 39079 ft 487 kts 159°
2026-04-11 11:18 -19.61773 24.59209 39081 ft 486 kts 159°
2026-04-11 11:19 -19.68028 24.62011 39081 ft 486 kts 159°
2026-04-11 11:19 -19.74241 24.64755 39080 ft 486 kts 159°
2026-04-11 11:20 -19.80495 24.67492 39079 ft 486 kts 159°
2026-04-11 11:20 -19.86733 24.70229 39078 ft 486 kts 159°
2026-04-11 11:21 -19.92975 24.72977 39081 ft 486 kts 159°
2026-04-11 11:21 -19.99247 24.75741 39084 ft 486 kts 159°
2026-04-11 11:22 -20.05475 24.78488 39084 ft 487 kts 159°
2026-04-11 11:22 -20.11766 24.81265 39086 ft 487 kts 159°
2026-04-11 11:23 -20.18009 24.84022 39086 ft 487 kts 160°
2026-04-11 11:23 -20.24343 24.86512 39088 ft 486 kts 163°
2026-04-11 11:24 -20.30742 24.88876 39090 ft 487 kts 162°
2026-04-11 11:24 -20.37115 24.91299 39089 ft 487 kts 162°
2026-04-11 11:25 -20.43509 24.93788 39090 ft 488 kts 160°
2026-04-11 11:25 -20.49684 24.96730 39102 ft 489 kts 157°
2026-04-11 11:26 -20.55868 24.99808 39099 ft 489 kts 157°
2026-04-11 11:26 -20.62019 25.02850 39102 ft 489 kts 157°
2026-04-11 11:27 -20.68221 25.05892 39102 ft 489 kts 158°
2026-04-11 11:27 -20.74416 25.08927 39105 ft 490 kts 158°
2026-04-11 11:28 -20.80584 25.11953 39096 ft 490 kts 158°
2026-04-11 11:28 -20.86795 25.15005 39091 ft 490 kts 158°
2026-04-11 11:29 -20.96069 25.19568 39087 ft 490 kts 158°
2026-04-11 11:29 -21.02267 25.22551 39079 ft 489 kts 160°
2026-04-11 11:30 -21.08598 25.25230 39088 ft 489 kts 161°
2026-04-11 11:30 -21.14950 25.27842 39075 ft 489 kts 161°
2026-04-11 11:31 -21.21279 25.30477 39074 ft 489 kts 161°
2026-04-11 11:31 -21.27638 25.33152 39067 ft 489 kts 161°
2026-04-11 11:32 -21.33961 25.35819 39068 ft 489 kts 161°
2026-04-11 11:32 -21.40310 25.38496 39066 ft 489 kts 161°
2026-04-11 11:33 -21.46638 25.41167 39061 ft 489 kts 161°
2026-04-11 11:33 -21.52962 25.43838 39058 ft 489 kts 161°
2026-04-11 11:34 -21.59270 25.46505 39061 ft 489 kts 161°
2026-04-11 11:34 -21.65601 25.49291 39061 ft 490 kts 160°
2026-04-11 11:35 -21.71851 25.52176 39057 ft 490 kts 159°
2026-04-11 11:35 -21.78101 25.55067 39059 ft 490 kts 159°
2026-04-11 11:36 -21.84385 25.57955 39058 ft 490 kts 160°
2026-04-11 11:36 -21.90683 25.60841 39054 ft 491 kts 160°
2026-04-11 11:37 -21.96958 25.63717 39053 ft 491 kts 160°
2026-04-11 11:37 -22.03211 25.66586 39057 ft 491 kts 160°
2026-04-11 11:38 -22.09515 25.69483 39060 ft 491 kts 160°
2026-04-11 11:38 -22.15778 25.72364 39062 ft 491 kts 160°
2026-04-11 11:39 -22.22096 25.75273 39064 ft 492 kts 160°
2026-04-11 11:39 -22.28377 25.78169 39066 ft 492 kts 160°
2026-04-11 11:40 -22.34649 25.81062 39075 ft 492 kts 160°
2026-04-11 11:40 -22.40959 25.83976 39077 ft 492 kts 160°
2026-04-11 11:41 -22.47271 25.86894 39083 ft 492 kts 160°
2026-04-11 11:41 -22.53543 25.89796 39096 ft 492 kts 160°
2026-04-11 11:42 -22.59853 25.92719 39096 ft 492 kts 160°
2026-04-11 11:42 -22.66126 25.95627 39106 ft 492 kts 160°
2026-04-11 11:43 -22.72403 25.98540 39111 ft 492 kts 160°
2026-04-11 11:43 -22.78726 26.01478 39125 ft 492 kts 160°
2026-04-11 11:44 -22.85006 26.04398 39119 ft 492 kts 160°
2026-04-11 11:44 -22.91285 26.07321 39135 ft 493 kts 160°
2026-04-11 11:45 -22.97574 26.10251 39145 ft 493 kts 160°
2026-04-11 11:45 -23.03901 26.13203 39154 ft 493 kts 160°
2026-04-11 11:46 -23.10187 26.16138 39156 ft 493 kts 160°
2026-04-11 11:46 -23.16469 26.19074 39155 ft 493 kts 160°
2026-04-11 11:47 -23.22791 26.22032 39166 ft 493 kts 160°
2026-04-11 11:47 -23.29073 26.24975 39161 ft 494 kts 160°
2026-04-11 11:48 -23.35404 26.27944 39165 ft 494 kts 160°
2026-04-11 11:48 -23.41687 26.30893 39170 ft 494 kts 160°
2026-04-11 11:49 -23.48006 26.33862 39177 ft 494 kts 160°
2026-04-11 11:49 -23.54310 26.36827 39183 ft 494 kts 160°
2026-04-11 11:50 -23.60645 26.39810 39188 ft 495 kts 160°
2026-04-11 11:50 -23.66952 26.42783 39193 ft 495 kts 160°
2026-04-11 11:51 -23.73271 26.45761 39198 ft 495 kts 160°
2026-04-11 11:51 -23.79604 26.48727 39204 ft 495 kts 160°
2026-04-11 11:52 -23.85917 26.51682 39212 ft 495 kts 160°
2026-04-11 11:52 -23.92263 26.54660 39216 ft 495 kts 160°
2026-04-11 11:53 -23.98586 26.57633 39226 ft 495 kts 160°
2026-04-11 11:53 -24.04896 26.60602 39227 ft 495 kts 160°
2026-04-11 11:54 -24.11226 26.63584 39235 ft 496 kts 160°
2026-04-11 11:54 -24.17590 26.66585 39247 ft 496 kts 160°
2026-04-11 11:55 -24.23908 26.69568 39248 ft 496 kts 160°
2026-04-11 11:55 -24.30149 26.72759 39254 ft 499 kts 153°
2026-04-11 11:56 -24.35877 26.77098 39262 ft 504 kts 142°
2026-04-11 11:56 -24.41133 26.82214 39267 ft 505 kts 141°
2026-04-11 11:57 -24.46337 26.87381 39269 ft 506 kts 141°
2026-04-11 11:57 -24.51602 26.92552 39265 ft 506 kts 141°
2026-04-11 11:58 -24.56864 26.97681 39270 ft 506 kts 141°
2026-04-11 11:58 -24.62118 27.02803 39268 ft 506 kts 141°
2026-04-11 11:59 -24.67362 27.07923 39271 ft 506 kts 141°
2026-04-11 11:59 -24.71757 27.12221 39270 ft 506 kts 141°
2026-04-11 12:00 -24.77012 27.17368 39267 ft 507 kts 141°
2026-04-11 12:00 -24.82285 27.22537 39269 ft 507 kts 141°
2026-04-11 12:01 -24.87529 27.27684 39265 ft 507 kts 141°
2026-04-11 12:01 -24.92809 27.32874 39263 ft 507 kts 141°
2026-04-11 12:02 -24.98050 27.38030 39262 ft 507 kts 141°
2026-04-11 12:02 -25.03790 27.42287 39263 ft 494 kts 163°
2026-04-11 12:03 -25.07054 27.43407 39138 ft 491 kts 172°
2026-04-11 12:03 -25.10454 27.43835 38307 ft 491 kts 184°
2026-04-11 12:03 -25.13878 27.43835 37620 ft 488 kts 184°
2026-04-11 12:03 -25.17275 27.43804 36850 ft 488 kts 184°
2026-04-11 12:04 -25.20673 27.43782 36100 ft 488 kts 183°
2026-04-11 12:04 -25.24044 27.43783 35245 ft 490 kts 182°
2026-04-11 12:04 -25.27468 27.43806 34340 ft 493 kts 181°
2026-04-11 12:04 -25.30933 27.43846 33294 ft 496 kts 181°
2026-04-11 12:05 -25.34397 27.43894 32259 ft 498 kts 181°
2026-04-11 12:05 -25.37826 27.43945 31507 ft 495 kts 181°
2026-04-11 12:05 -25.41259 27.43995 30837 ft 491 kts 181°
2026-04-11 12:05 -25.44667 27.44043 30166 ft 487 kts 181°
2026-04-11 12:06 -25.48018 27.44088 29424 ft 483 kts 181°
2026-04-11 12:06 -25.51389 27.44132 28723 ft 478 kts 181°
2026-04-11 12:06 -25.54668 27.44174 28278 ft 469 kts 181°
2026-04-11 12:06 -25.57899 27.44218 28098 ft 455 kts 181°
2026-04-11 12:07 -25.61025 27.44259 27910 ft 442 kts 181°
2026-04-11 12:07 -25.64068 27.44298 27739 ft 430 kts 181°
2026-04-11 12:07 -25.66987 27.44340 27564 ft 417 kts 180°
2026-04-11 12:07 -25.69806 27.44881 27386 ft 409 kts 160°
2026-04-11 12:08 -25.72282 27.46374 27141 ft 404 kts 144°
2026-04-11 12:08 -25.74313 27.48529 26724 ft 403 kts 128°
2026-04-11 12:08 -25.75837 27.51082 26345 ft 399 kts 122°
2026-04-11 12:08 -25.77273 27.53715 25930 ft 398 kts 121°
2026-04-11 12:09 -25.78692 27.56352 25522 ft 396 kts 121°
2026-04-11 12:09 -25.80115 27.58970 25115 ft 395 kts 122°
2026-04-11 12:09 -25.81543 27.61565 24823 ft 393 kts 122°
2026-04-11 12:09 -25.82969 27.64132 24660 ft 387 kts 122°
2026-04-11 12:10 -25.84359 27.66623 24499 ft 381 kts 122°
2026-04-11 12:10 -25.85749 27.69109 24210 ft 377 kts 122°
2026-04-11 12:10 -25.87136 27.71589 23846 ft 376 kts 122°
2026-04-11 12:10 -25.88514 27.74055 23400 ft 375 kts 122°
2026-04-11 12:11 -25.89872 27.76486 23009 ft 373 kts 122°
2026-04-11 12:11 -25.91238 27.78939 22646 ft 370 kts 122°
2026-04-11 12:11 -25.92597 27.81378 22287 ft 368 kts 122°
2026-04-11 12:11 -25.93939 27.83791 21923 ft 365 kts 122°
2026-04-11 12:12 -25.95265 27.86174 21552 ft 364 kts 122°
2026-04-11 12:12 -25.96595 27.88567 21197 ft 362 kts 122°
2026-04-11 12:12 -25.97914 27.90941 20852 ft 360 kts 122°
2026-04-11 12:12 -25.99214 27.93284 20514 ft 358 kts 122°
2026-04-11 12:13 -26.00523 27.95642 20184 ft 356 kts 122°
2026-04-11 12:13 -26.01824 27.97988 19839 ft 355 kts 122°
2026-04-11 12:13 -26.03115 28.00316 19535 ft 352 kts 122°
2026-04-11 12:13 -26.04383 28.02602 19461 ft 341 kts 122°
2026-04-11 12:14 -26.05609 28.04818 19400 ft 331 kts 122°
2026-04-11 12:14 -26.06796 28.06925 19355 ft 317 kts 127°
2026-04-11 12:14 -26.08379 28.08560 19162 ft 305 kts 153°
2026-04-11 12:14 -26.10285 28.09391 19020 ft 293 kts 171°
2026-04-11 12:15 -26.12277 28.09711 18798 ft 287 kts 176°
2026-04-11 12:15 -26.14245 28.09828 18368 ft 278 kts 192°
2026-04-11 12:15 -26.16093 28.09219 17720 ft 276 kts 202°
2026-04-11 12:15 -26.17879 28.08487 17166 ft 275 kts 202°
2026-04-11 12:16 -26.19670 28.07750 16667 ft 272 kts 202°
2026-04-11 12:16 -26.21442 28.07024 16181 ft 269 kts 202°
2026-04-11 12:16 -26.23198 28.06307 15702 ft 267 kts 201°
2026-04-11 12:16 -26.24916 28.05609 15225 ft 265 kts 201°
2026-04-11 12:17 -26.26649 28.04906 14768 ft 263 kts 201°
2026-04-11 12:17 -26.28365 28.04209 14309 ft 261 kts 201°
2026-04-11 12:17 -26.30072 28.03514 13815 ft 259 kts 201°
2026-04-11 12:17 -26.31760 28.02829 13290 ft 257 kts 201°
2026-04-11 12:18 -26.33423 28.02156 12859 ft 253 kts 201°
2026-04-11 12:18 -26.35052 28.01497 12510 ft 245 kts 201°
2026-04-11 12:18 -26.38298 28.00617 11879 ft 242 kts 171°
2026-04-11 12:19 -26.39816 28.01359 11501 ft 245 kts 140°
2026-04-11 12:19 -26.40795 28.02893 11160 ft 244 kts 109°
2026-04-11 12:19 -26.40956 28.04764 10834 ft 243 kts 84°
2026-04-11 12:19 -26.40716 28.06617 10545 ft 243 kts 80°
2026-04-11 12:20 -26.40420 28.08472 10281 ft 242 kts 79°
2026-04-11 12:20 -26.40116 28.10322 10028 ft 241 kts 79°
2026-04-11 12:20 -26.39817 28.12116 9951 ft 228 kts 79°
2026-04-11 12:20 -26.39538 28.13800 9833 ft 215 kts 79°
2026-04-11 12:21 -26.39270 28.15397 9609 ft 208 kts 79°
2026-04-11 12:21 -26.38874 28.16913 9244 ft 202 kts 58°
2026-04-11 12:21 -26.37841 28.17913 8788 ft 199 kts 22°
2026-04-11 12:21 -26.36552 28.18474 8442 ft 199 kts 18°
2026-04-11 12:22 -26.35249 28.18946 8233 ft 194 kts 15°
2026-04-11 12:22 -26.33955 28.19368 8090 ft 195 kts 15°
2026-04-11 12:22 -26.32639 28.19779 8051 ft 197 kts 15°
2026-04-11 12:22 -26.31308 28.20197 8011 ft 200 kts 14°
2026-04-11 12:23 -26.29972 28.20615 8015 ft 199 kts 14°
2026-04-11 12:23 -26.28633 28.21030 7958 ft 200 kts 14°
2026-04-11 12:23 -26.27298 28.21443 7703 ft 199 kts 14°
2026-04-11 12:23 -26.25972 28.21854 7442 ft 192 kts 15°
2026-04-11 12:24 -26.24721 28.22250 7193 ft 181 kts 15°
2026-04-11 12:24 -26.23582 28.22604 6997 ft 165 kts 14°
2026-04-11 12:24 -26.22465 28.22948 6812 ft 169 kts 14°
2026-04-11 12:24 -26.21337 28.23301 6571 ft 165 kts 14°
2026-04-11 12:25 -26.20246 28.23637 6343 ft 160 kts 13°
2026-04-11 12:25 -26.19195 28.23968 6117 ft 156 kts 15°
2026-04-11 12:25 -26.18142 28.24295 5926 ft 156 kts 13°
2026-04-11 12:25 -26.17091 28.24618 5669 ft 156 kts 14°
2026-04-11 12:26 -26.16056 28.24944 5545 ft 151 kts 14°
2026-04-11 12:26 -26.15124 28.25230 5515 ft 121 kts 15°
2026-04-11 12:26 -26.14457 28.25438 5512 ft 77 kts 15°
2026-04-11 12:26 -26.14036 28.25570 5514 ft 58 kts 16°
2026-04-11 12:27 -26.13725 28.25665 5511 ft 36 kts 15°
2026-04-11 12:27 -26.13565 28.25709 5509 ft 12 kts 354°
2026-04-11 12:27 -26.13515 28.25643 5507 ft 12 kts 286°
2026-04-11 12:27 -26.13489 28.25554 5510 ft 12 kts 296°
2026-04-11 12:28 -26.13406 28.25513 5517 ft 17 kts 348°
2026-04-11 12:28 -26.13260 28.25480 5527 ft 23 kts 348°
2026-04-11 12:28 -26.13120 28.25443 5537 ft 17 kts 342°
2026-04-11 12:28 -26.13013 28.25381 5537 ft 17 kts 324°
2026-04-11 12:29 -26.12927 28.25290 5537 ft 17 kts 308°
2026-04-11 12:29 -26.12868 28.25174 5537 ft 17 kts 291°
2026-04-11 12:29 -26.12836 28.25044 5537 ft 17 kts 285°
2026-04-11 12:29 -26.12803 28.24916 5537 ft 17 kts 286°
2026-04-11 12:30 -26.12770 28.24789 5537 ft 17 kts 286°
2026-04-11 12:30 -26.12736 28.24656 5537 ft 19 kts 286°
2026-04-11 12:30 -26.12700 28.24512 5543 ft 20 kts 285°
2026-04-11 12:30 -26.12663 28.24364 5544 ft 20 kts 286°
2026-04-11 12:31 -26.12625 28.24216 5546 ft 20 kts 285°
2026-04-11 12:31 -26.12587 28.24066 5546 ft 20 kts 285°
2026-04-11 12:31 -26.12559 28.23953 5548 ft 14 kts 285°
2026-04-11 12:31 -26.12557 28.23886 5546 ft 7 kts 233°
2026-04-11 12:32 -26.12614 28.23860 5549 ft 12 kts 198°
2026-04-11 12:32 -26.12728 28.23826 5550 ft 20 kts 195°
2026-04-11 12:32 -26.12864 28.23785 5549 ft 20 kts 196°
2026-04-11 12:32 -26.12998 28.23741 5552 ft 20 kts 197°
2026-04-11 12:33 -26.13112 28.23707 5553 ft 15 kts 196°
2026-04-11 12:33 -26.13133 28.23646 5553 ft 10 kts 278°
2026-04-11 12:33 -26.13121 28.23537 5555 ft 16 kts 276°
2026-04-11 12:33 -26.13101 28.23443 5556 ft 12 kts 305°
2026-04-11 12:34 -26.13056 28.23398 5556 ft 5 kts 321°
2026-04-11 12:34 -26.13030 28.23376 5556 ft 5 kts 322°
2026-04-11 12:34 -26.13018 28.23365 5555 ft 0 kts 322°